Return to Metar
SPECI CYNL 071819Z AUTO 09014KT 9SM CLR 25/12 A2968 RMK AO1 WSHFT (18)19 SLP035
METAR CYNL 071800Z AUTO 13015G24KT 9SM CLR 25/12 A2969 RMK AO1 SLP037
METAR CYNL 071700Z AUTO 12010G18KT 9SM CLR 24/12 A2969 RMK AO1 SLP039
METAR CYNL 071600Z AUTO 11014G20KT 9SM CLR 22/12 A2969 RMK AO1 SLP040
METAR CYNL 071500Z AUTO 11014KT 9SM CLR 21/12 A2970 RMK AO1 SLP044
METAR CYNL 071400Z AUTO 11010G17KT 9SM CLR 20/12 A2971 RMK AO1 SLP044
METAR CYNL 071300Z AUTO 08011KT 9SM CLR 18/13 A2971 RMK AO1 SLP042
METAR CYNL 071200Z AUTO 08006KT 9SM CLR 15/13 A2972 RMK AO1 SLP048
METAR CYNL 071100Z AUTO 08006KT 9SM CLR 15/13 A2972 RMK AO1 SLP050
METAR CYNL 071000Z AUTO 07005KT 9SM CLR 15/13 A2973 RMK AO1 SLP050
METAR CYNL 070900Z AUTO 09004KT 9SM CLR 15/13 A2974 RMK AO1 SLP054
METAR CYNL 070800Z AUTO 07006KT 9SM CLR 16/12 A2973 RMK AO1 SLP051
METAR CYNL 070700Z AUTO 07005KT 9SM CLR 16/11 A2974 RMK AO1 SLP053
METAR CYNL 070600Z AUTO 07005KT 9SM CLR 17/11 A2974 RMK AO1 SLP051
METAR CYNL 070500Z AUTO 07006KT 9SM CLR 19/10 A2973 RMK AO1 SLP049
METAR CYNL 070400Z AUTO 04006KT 9SM CLR 19/10 A2973 RMK AO1 SLP048
METAR CYNL 070300Z AUTO 04004KT 9SM CLR 21/09 A2972 RMK AO1 SLP044
METAR CYNL 070200Z AUTO 02005KT 9SM CLR 25/08 A2971 RMK AO1 SLP041
METAR CYNL 070100Z AUTO 35005KT 9SM CLR 26/09 A2971 RMK AO1 SLP040
METAR CYNL 070000Z AUTO 35008KT 9SM CLR 27/09 A2971 RMK AO1 SLP043
METAR CYNL 062300Z AUTO 31010KT 9SM CLR 27/09 A2971 RMK AO1 SLP045
METAR CYNL 062200Z AUTO 35007KT 9SM CLR 27/09 A2971 RMK AO1 SLP046
METAR CYNL 062100Z AUTO 32007KT 9SM CLR 27/08 A2971 RMK AO1 SLP046
METAR CYNL 062000Z AUTO 31010G16KT 270V340 9SM CLR 27/08 A2971 RMK AO1 SLP047
METAR CYNL 061900Z AUTO 33008KT 9SM FEW072 27/07 A2972 RMK AO1 SLP049
SPECI CYNL 061837Z AUTO 31010KT 9SM CLR 27/07 A2972 RMK AO1 WSHFT (18)37 SLP049
METAR CYNL 061800Z AUTO 26007KT 9SM CLR 26/07 A2972 RMK AO1 SLP052
SPECI CYNL 061713Z AUTO 29012KT 9SM CLR 25/07 A2973 RMK AO1 WSHFT (17)13 SLP052
METAR CYNL 061700Z AUTO 25009KT 9SM CLR 25/07 A2973 RMK AO1 SLP053
METAR CYNL 061600Z AUTO 27009G15KT 9SM CLR 24/07 A2973 RMK AO1 SLP053
METAR CYNL 061500Z AUTO 26008KT 9SM CLR 23/08 A2974 RMK AO1 SLP054
METAR CYNL 061400Z AUTO 24007KT 9SM CLR 20/10 A2975 RMK AO1 SLP056
METAR CYNL 061300Z AUTO 25005KT 9SM CLR 17/13 A2975 RMK AO1 SLP059
METAR CYNL 061200Z AUTO 23004KT 9SM CLR 14/11 A2975 RMK AO1 SLP060
METAR CYNL 061100Z AUTO 24003KT 9SM CLR 13/12 A2975 RMK AO1 SLP062
METAR CYNL 061000Z AUTO 24003KT 9SM CLR 12/12 A2975 RMK AO1 SLP062
METAR CYNL 060900Z AUTO 26004KT 9SM CLR 12/10 A2975 RMK AO1 SLP061
METAR CYNL 060800Z AUTO 27003KT 9SM CLR 13/09 A2975 RMK AO1 SLP059
METAR CYNL 060700Z AUTO 23004KT 9SM CLR 14/10 A2974 RMK AO1 SLP057
METAR CYNL 060600Z AUTO 26003KT 9SM CLR 15/10 A2974 RMK AO1 SLP056
METAR CYNL 060500Z AUTO 00000KT 9SM CLR 16/10 A2974 RMK AO1 SLP054
METAR CYNL 060400Z AUTO 34004KT 9SM CLR 20/07 A2973 RMK AO1 SLP050
METAR CYNL 060300Z AUTO 30003KT 9SM CLR 22/07 A2972 RMK AO1 SLP043
METAR CYNL 060200Z AUTO 28006KT 9SM CLR 25/06 A2970 RMK AO1 SLP038
METAR CYNL 060100Z AUTO 27013G20KT 9SM FEW084 27/05 A2970 RMK AO1 SLP038
METAR CYNL 060000Z AUTO 27009G16KT 9SM CLR 27/05 A2970 RMK AO1 SLP041
METAR CYNL 052300Z AUTO 26009G20KT 9SM CLR 27/05 A2971 RMK AO1 SLP047
METAR CYNL 052200Z AUTO 24011G20KT 9SM FEW090 27/04 A2972 RMK AO1 SLP051
METAR CYNL 052100Z AUTO 28010G21KT 9SM FEW084 26/04 A2974 RMK AO1 SLP055
METAR CYNL 052000Z AUTO 25008KT 9SM CLR 26/06 A2975 RMK AO1 SLP060
METAR CYNL 051900Z AUTO 25008G19KT 9SM CLR 25/06 A2976 RMK AO1 SLP065
METAR CYNL 051800Z AUTO 26008KT 9SM CLR 24/06 A2977 RMK AO1 WSHFT (17)47 SLP068
SPECI CYNL 051747Z AUTO 27011KT 9SM CLR 24/05 A2978 RMK AO1 WSHFT (17)47 SLP071
METAR CYNL 051700Z AUTO 24010KT 9SM FEW064 24/07 A2978 RMK AO1 SLP073
METAR CYNL 051600Z AUTO 25010KT 9SM CLR 23/08 A2979 RMK AO1 SLP076
METAR CYNL 051500Z AUTO 24006KT 9SM CLR 21/10 A2980 RMK AO1 SLP078
METAR CYNL 051400Z AUTO 24005KT 9SM CLR 19/11 A2980 RMK AO1 SLP078
METAR CYNL 051300Z AUTO 25003KT 9SM CLR 16/11 A2980 RMK AO1 SLP080
METAR CYNL 051200Z AUTO 26004KT 9SM CLR 14/11 A2981 RMK AO1 SLP084
METAR CYNL 051100Z AUTO 27002KT 9SM CLR 13/11 A2980 RMK AO1 SLP083
METAR CYNL 051000Z AUTO 25003KT 9SM CLR 14/12 A2980 RMK AO1 SLP082
METAR CYNL 050900Z AUTO 24005KT 9SM CLR 14/12 A2980 RMK AO1 SLP085
METAR CYNL 050800Z AUTO 24004KT 9SM CLR 14/13 A2980 RMK AO1 SLP084
METAR CYNL 050700Z AUTO 00000KT 9SM CLR 14/13 A2981 RMK AO1 SLP084
METAR CYNL 050600Z AUTO 00000KT 9SM CLR 15/13 A2982 RMK AO1 SLP086
METAR CYNL 050500Z AUTO 23002KT 9SM CLR 16/13 A2982 RMK AO1 SLP086
METAR CYNL 050400Z AUTO 28004KT 9SM CLR 18/13 A2982 RMK AO1 SLP085
METAR CYNL 050300Z AUTO 26004KT 9SM SCT058 20/14 A2982 RMK AO1 SLP082
METAR CYNL 050200Z AUTO 24002KT 9SM FEW054 22/13 A2981 RMK AO1 SLP077
METAR CYNL 050100Z AUTO 22005KT 9SM FEW056 22/13 A2980 RMK AO1 SLP078
METAR CYNL 050000Z AUTO 25004KT 9SM FEW042 23/13 A2981 RMK AO1 SLP078
METAR CYNL 042300Z AUTO 28007KT 250V310 9SM FEW028 23/15 A2981 RMK AO1 SLP082
METAR CYNL 042200Z AUTO 21003KT 9SM BKN082 19/15 A2982 RMK AO1 SLP088
METAR CYNL 042100Z AUTO 27008KT 9SM BKN031 20/14 A2982 RMK AO1 SLP085
METAR CYNL 042000Z AUTO 20009KT 9SM BKN046 BKN062 21/13 A2980 RMK AO1 SLP078
METAR CYNL 041900Z AUTO 21005KT 9SM FEW210 22/13 A2980 RMK AO1 SLP075
METAR CYNL 041800Z AUTO 22008KT 9SM FEW150 22/13 A2980 RMK AO1 SLP074
METAR CYNL 041700Z AUTO 19009KT 9SM FEW160 SCT210 22/13 A2980 RMK AO1 SLP076
METAR CYNL 041600Z AUTO 19009KT 9SM CLR 21/13 A2981 RMK AO1 SLP077
METAR CYNL 041500Z AUTO 16008KT 9SM CLR 21/13 A2982 RMK AO1 SLP079
METAR CYNL 041400Z AUTO 18008KT 9SM FEW072 18/12 A2983 RMK AO1 SLP087
METAR CYNL 041300Z AUTO 18008KT 9SM CLR 18/12 A2984 RMK AO1 SLP089
METAR CYNL 041200Z AUTO 16003KT 9SM CLR 16/12 A2985 RMK AO1 SLP091
METAR CYNL 041100Z AUTO 16004KT 9SM CLR 16/12 A2986 RMK AO1 SLP097
METAR CYNL 041000Z AUTO 17006KT 9SM CLR 17/11 A2988 RMK AO1 SLP099
METAR CYNL 040900Z AUTO 17007KT 9SM CLR 18/11 A2988 RMK AO1 SLP100
METAR CYNL 040800Z AUTO 17009KT 9SM CLR 19/11 A2990 RMK AO1 SLP104
METAR CYNL 040700Z AUTO 17009KT 9SM CLR 20/11 A2991 RMK AO1 SLP108
METAR CYNL 040600Z AUTO 17009KT 9SM CLR 20/11 A2992 RMK AO1 SLP114
METAR CYNL 040500Z AUTO 17006KT 9SM CLR 21/12 A2993 RMK AO1 SLP115
METAR CYNL 040400Z AUTO 17010KT 9SM FEW068 22/11 A2994 RMK AO1 SLP117
METAR CYNL 040300Z AUTO 18007KT 9SM CLR 23/12 A2994 RMK AO1 SLP120
METAR CYNL 040200Z AUTO 19009KT 9SM SCT074 25/11 A2994 RMK AO1 SLP119
METAR CYNL 040100Z AUTO 19013G19KT 9SM CLR 26/10 A2994 RMK AO1 SLP119
METAR CYNL 040000Z AUTO 19011G16KT 9SM CLR 27/10 A2995 RMK AO1 SLP126
METAR CYNL 032300Z AUTO 18011G16KT 9SM FEW068 28/10 A2996 RMK AO1 SLP130
METAR CYNL 032200Z AUTO 19010G16KT 9SM FEW072 28/11 A2998 RMK AO1 SLP134
METAR CYNL 032100Z AUTO 19012G19KT 9SM FEW066 27/10 A2999 RMK AO1 SLP139
METAR CYNL 032000Z AUTO 19016G22KT 9SM FEW062 27/11 A3000 RMK AO1 SLP141
SPECI CYNL 031907Z AUTO 16010G18KT 9SM FEW056 26/11 A3001 RMK AO1 WSHFT (19)07 PRESFR SLP146
METAR CYNL 031900Z AUTO 18011G20KT 9SM FEW056 26/11 A3001 RMK AO1 WSHFT (18)53 PRESFR SLP147
SPECI CYNL 031853Z AUTO 21011G20KT 9SM CLR 26/11 A3002 RMK AO1 WSHFT (18)53 PRESFR SLP147
METAR CYNL 031800Z AUTO 18013G22KT 9SM CLR 25/11 A3004 RMK AO1 PRESFR SLP155
METAR CYNL 031700Z AUTO 17015KT 9SM CLR 25/11 A3006 RMK AO1 SLP164
METAR CYNL 031600Z AUTO 18011KT 9SM CLR 23/12 A3008 RMK AO1 SLP169
METAR CYNL 031500Z AUTO 16006KT 9SM CLR 21/13 A3009 RMK AO1 SLP176
METAR CYNL 031400Z AUTO 18004KT 9SM CLR 19/13 A3010 RMK AO1 SLP180
METAR CYNL 031300Z AUTO 18006KT 9SM CLR 17/12 A3010 RMK AO1 SLP179
METAR CYNL 031200Z AUTO 19006KT 9SM CLR 16/12 A3011 RMK AO1 SLP183
METAR CYNL 031100Z AUTO 19004KT 9SM CLR 16/12 A3011 RMK AO1 SLP182
METAR CYNL 031000Z AUTO 21004KT 9SM CLR 16/12 A3012 RMK AO1 SLP182
METAR CYNL 030900Z AUTO 22003KT 9SM CLR 17/12 A3011 RMK AO1 SLP181
METAR CYNL 030800Z AUTO 21004KT 9SM CLR 17/13 A3012 RMK AO1 SLP181
METAR CYNL 030700Z AUTO 19003KT 9SM CLR 18/13 A3011 RMK AO1 SLP180
METAR CYNL 030600Z AUTO 16004KT 9SM CLR 19/13 A3012 RMK AO1 SLP183
METAR CYNL 030500Z AUTO 15006KT 9SM CLR 19/12 A3012 RMK AO1 SLP182
METAR CYNL 030400Z AUTO 14005KT 9SM CLR 19/10 A3013 RMK AO1 SLP185
METAR CYNL 030300Z AUTO 13004KT 9SM CLR 21/10 A3013 RMK AO1 SLP185
METAR CYNL 030200Z AUTO 15005KT 9SM CLR 24/10 A3014 RMK AO1 SLP186
METAR CYNL 030100Z AUTO 16007KT 9SM CLR 25/08 A3014 RMK AO1 SLP189
METAR CYNL 030000Z AUTO 15008KT 9SM CLR 26/07 A3015 RMK AO1 SLP195
METAR CYNL 022300Z AUTO 15011KT 9SM CLR 26/08 A3016 RMK AO1 SLP200
METAR CYNL 022200Z AUTO 18008KT 9SM CLR 27/09 A3016 RMK AO1 SLP203
METAR CYNL 022100Z AUTO 16008KT 9SM CLR 27/09 A3017 RMK AO1 SLP206
METAR CYNL 022000Z AUTO 18007KT 9SM CLR 26/10 A3018 RMK AO1 SLP209
METAR CYNL 021900Z AUTO 19007KT 9SM CLR 25/09 A3019 RMK AO1 SLP211
METAR CYNL 021800Z AUTO 20010KT 9SM CLR 25/10 A3020 RMK AO1 SLP214
METAR CYNL 021700Z AUTO 18007KT 9SM CLR 25/10 A3021 RMK AO1 SLP217
METAR CYNL 021600Z AUTO 20007KT 9SM CLR 24/12 A3022 RMK AO1 SLP221
METAR CYNL 021500Z AUTO 20006KT 9SM CLR 22/12 A3022 RMK AO1 SLP224
METAR CYNL 021400Z AUTO 21004KT 9SM CLR 19/12 A3023 RMK AO1 SLP225
METAR CYNL 021300Z AUTO 23002KT 9SM CLR 16/13 A3023 RMK AO1 SLP227
METAR CYNL 021200Z AUTO 19003KT 9SM CLR 12/11 A3023 RMK AO1 SLP227
METAR CYNL 021100Z AUTO 17002KT 9SM CLR 11/10 A3023 RMK AO1 SLP227
METAR CYNL 021000Z AUTO 17003KT 9SM CLR 12/11 A3023 RMK AO1 SLP227
METAR CYNL 020900Z AUTO 16004KT 9SM CLR 12/11 A3023 RMK AO1 SLP229
METAR CYNL 020800Z AUTO 15002KT 9SM CLR 12/10 A3023 RMK AO1 SLP229
METAR CYNL 020700Z AUTO 00000KT 9SM CLR 13/10 A3023 RMK AO1 SLP226
METAR CYNL 020600Z AUTO 07003KT 9SM CLR 14/09 A3023 RMK AO1 SLP228
METAR CYNL 020500Z AUTO 10003KT 9SM CLR 14/10 A3023 RMK AO1 SLP228
METAR CYNL 020400Z AUTO 10003KT 9SM CLR 16/11 A3023 RMK AO1 SLP228
METAR CYNL 020300Z AUTO 09004KT 9SM CLR 19/10 A3023 RMK AO1 SLP226
METAR CYNL 020200Z AUTO 10006KT 9SM CLR 21/09 A3023 RMK AO1 SLP224
METAR CYNL 020100Z AUTO 11006KT 9SM CLR 24/09 A3023 RMK AO1 SLP223
METAR CYNL 020000Z AUTO 00000KT 9SM CLR 25/04 A3023 RMK AO1 SLP225
METAR CYNL 012300Z AUTO 14007KT 100V180 9SM CLR 24/05 A3025 RMK AO1 SLP235
METAR CYNL 012200Z AUTO 25004KT 220V290 9SM CLR 24/05 A3026 RMK AO1 SLP240
METAR CYNL 012100Z AUTO 14004KT 9SM CLR 24/06 A3026 RMK AO1 SLP244
METAR CYNL 012000Z AUTO 15003KT 9SM CLR 23/07 A3027 RMK AO1 SLP246
METAR CYNL 011900Z AUTO 05005KT 350V120 9SM CLR 22/06 A3028 RMK AO1 SLP251
METAR CYNL 011800Z AUTO 35005KT 300V030 9SM CLR 21/06 A3029 RMK AO1 SLP251
METAR CYNL 011700Z AUTO 26004KT 190V320 9SM CLR 21/07 A3030 RMK AO1 SLP255
METAR CYNL 011600Z AUTO 33005KT 300V010 9SM CLR 20/09 A3030 RMK AO1 SLP255
METAR CYNL 011500Z AUTO 24005KT 9SM CLR 18/10 A3032 RMK AO1 SLP260
METAR CYNL 011400Z AUTO 22005KT 9SM CLR 16/10 A3032 RMK AO1 SLP261
METAR CYNL 011300Z AUTO 00000KT 9SM CLR 15/11 A3031 RMK AO1 SLP256
METAR CYNL 011200Z AUTO 00000KT 9SM CLR 09/09 A3030 RMK AO1 SLP257
METAR CYNL 011100Z AUTO 00000KT 9SM CLR 08/08 A3029 RMK AO1 SLP255
METAR CYNL 011000Z AUTO 00000KT 9SM CLR 09/09 A3029 RMK AO1 SLP253
METAR CYNL 010900Z AUTO 00000KT 9SM CLR 09/09 A3028 RMK AO1 SLP253
METAR CYNL 010800Z AUTO 35003KT 9SM CLR 10/09 A3027 RMK AO1 SLP249
METAR CYNL 010700Z AUTO 00000KT 9SM CLR 11/10 A3026 RMK AO1 SLP244
METAR CYNL 010600Z AUTO 34004KT 9SM CLR 12/10 A3026 RMK AO1 SLP242
METAR CYNL 010500Z AUTO 00000KT 9SM CLR 13/10 A3025 RMK AO1 SLP239
METAR CYNL 010400Z AUTO 02004KT 9SM CLR 15/10 A3025 RMK AO1 SLP235
METAR CYNL 010300Z AUTO 02005KT 9SM CLR 18/11 A3024 RMK AO1 SLP232
METAR CYNL 010200Z AUTO 03005KT 9SM FEW043 19/11 A3024 RMK AO1 SLP230
METAR CYNL 010100Z AUTO 01006KT 9SM FEW043 21/11 A3023 RMK AO1 SLP227
METAR CYNL 010000Z AUTO 04007KT 9SM FEW041 21/11 A3022 RMK AO1 SLP226
METAR CYNL 312300Z AUTO 00007KT 9SM CLR 21/11 A3022 RMK AO1 SLP228
METAR CYNL 312200Z AUTO 00006KT 9SM FEW034 SCT046 18/12 A3022 RMK AO1 SLP232
SPECI CYNL 312129Z AUTO 34013KT 310V010 9SM FEW035 21/13 A3022 RMK AO1 WSHFT (21)29 SLP227
METAR CYNL 312100Z AUTO 34006G16KT 9SM FEW043 20/11 A3022 RMK AO1 SLP228
METAR CYNL 312000Z AUTO 00007KT 9SM FEW032 20/11 A3020 RMK AO1 SLP223
METAR CYNL 311900Z AUTO 33008KT 9SM FEW052 19/12 A3020 RMK AO1 SLP223
METAR CYNL 311800Z AUTO 32009KT 9SM FEW052 18/12 A3020 RMK AO1 SLP223
METAR CYNL 311700Z AUTO 33006KT 9SM FEW036 SCT047 19/12 A3019 RMK AO1 SLP217
METAR CYNL 311600Z AUTO 30009KT 9SM FEW017 SCT023 18/12 A3018 RMK AO1 SLP216
METAR CYNL 311500Z AUTO 31009KT 9SM FEW012 17/13 A3017 RMK AO1 SLP214
METAR CYNL 311400Z AUTO 30006KT 9SM CLR 16/12 A3017 RMK AO1 SLP208
METAR CYNL 311300Z AUTO 29005KT 9SM CLR 14/11 A3015 RMK AO1 SLP204
METAR CYNL 311200Z AUTO 29005KT 9SM CLR 13/10 A3014 RMK AO1 SLP201
METAR CYNL 311100Z AUTO 28004KT 9SM FEW054 SCT064 11/09 A3013 RMK AO1 SLP199
METAR CYNL 311000Z AUTO 28004KT 9SM CLR 11/10 A3012 RMK AO1 SLP193
METAR CYNL 310900Z AUTO 28004KT 9SM CLR 11/10 A3011 RMK AO1 SLP192
METAR CYNL 310800Z AUTO 29003KT 9SM CLR 11/10 A3011 RMK AO1 SLP193
METAR CYNL 310700Z AUTO 26004KT 9SM CLR 12/11 A3011 RMK AO1 PRESFR SLP189
METAR CYNL 310600Z AUTO 31004KT 9SM FEW050 SCT066 13/11 A3013 RMK AO1 SLP195
METAR CYNL 310500Z AUTO 24002KT 9SM FEW084 13/12 A3012 RMK AO1 SLP194
SPECI CYNL 310405Z AUTO 31010G15KT 280V340 3SM SCT044 BKN060 OVC084 13/11 A3014 RMK AO1 PRESRR SLP201
SPECI CYNL 310404Z AUTO 30004G15KT 1 1/2SM SCT044 BKN060 BKN084 13/11 A3014 RMK AO1 PRESRR SLP201
SPECI CYNL 310403Z AUTO 31005G17KT 1 1/4SM SCT045 BKN060 BKN084 13/11 A3014 RMK AO1 PRESRR SLP202
SPECI CYNL 310402Z AUTO 31005G19KT 1 1/2SM SCT044 BKN060 BKN084 13/11 A3014 RMK AO1 PRESRR SLP202
SPECI CYNL 310401Z AUTO 31006G20KT 2SM FEW036 SCT046 BKN060 13/11 A3014 RMK AO1 PRESRR SLP201
METAR CYNL 310400Z AUTO 32006G20KT 3SM FEW036 SCT046 BKN062 13/11 A3014 RMK AO1 PRESRR SLP201
SPECI CYNL 310359Z AUTO 33005G20KT 2SM VV043 14/11 A3014 RMK AO1 PRESRR SLP201
SPECI CYNL 310355Z AUTO 35012G20KT 1 3/4SM SCT045 BKN084 14/11 A3014 RMK AO1 SLP201
SPECI CYNL 310353Z AUTO 35012G20KT 1 1/4SM SCT045 BKN082 14/11 A3014 RMK AO1 SLP201
SPECI CYNL 310351Z AUTO 00014G20KT 2 1/2SM FEW044 BKN084 15/10 A3013 RMK AO1 SLP200
METAR CYNL 310300Z AUTO 33003KT 9SM CLR 18/10 A3011 RMK AO1 SLP189
METAR CYNL 310200Z AUTO 33008KT 9SM CLR 19/08 A3011 RMK AO1 SLP187
METAR CYNL 310100Z AUTO 32008KT 9SM CLR 20/09 A3010 RMK AO1 SLP183
METAR CYNL 310000Z AUTO 34012G21KT 9SM CLR 20/08 A3008 RMK AO1 SLP179
METAR CYNL 302300Z AUTO 31014G21KT 9SM CLR 21/09 A3007 RMK AO1 SLP176
METAR CYNL 302200Z AUTO 31009G22KT 9SM FEW043 21/10 A3006 RMK AO1 SLP173
METAR CYNL 302100Z AUTO 31009G18KT 9SM FEW040 20/12 A3006 RMK AO1 SLP174
METAR CYNL 302000Z AUTO 29009KT 9SM FEW034 SCT060 21/12 A3006 RMK AO1 SLP169
METAR CYNL 301900Z AUTO 27007KT 9SM SCT039 BKN054 20/11 A3005 RMK AO1 SLP168
METAR CYNL 301800Z AUTO 00000KT 9SM CLR 20/14 A3004 RMK AO1 SLP164
METAR CYNL 301700Z AUTO 06007KT 9SM CLR 17/13 A3004 RMK AO1 PRESFR SLP164
METAR CYNL 301600Z AUTO 33011G17KT 9SM FEW100 17/13 A3006 RMK AO1 SLP173
METAR CYNL 301500Z AUTO 26004KT 9SM FEW041 17/16 A3005 RMK AO1 SLP168
METAR CYNL 301400Z AUTO 27003KT 9SM FEW078 16/16 A3004 RMK AO1 SLP162
METAR CYNL 301300Z AUTO 25003KT 9SM FEW110 15/15 A3004 RMK AO1 SLP162
METAR CYNL 301200Z AUTO 00000KT 9SM SCT110 14/14 A3003 RMK AO1 SLP162
SPECI CYNL 301135Z AUTO 00000KT 3SM FEW190 14/14 A3003 RMK AO1 SLP164
SPECI CYNL 301133Z AUTO 00000KT 2SM FEW190 14/14 A3003 RMK AO1 SLP164
SPECI CYNL 301130Z AUTO 26003KT 3SM FEW190 14/14 A3003 RMK AO1 SLP165
SPECI CYNL 301129Z AUTO 26003KT 2 1/2SM FEW190 14/14 A3003 RMK AO1 SLP165
SPECI CYNL 301128Z AUTO 26003KT 1 1/2SM FEW190 14/14 A3003 RMK AO1 SLP165
SPECI CYNL 301123Z AUTO 00000KT 1 1/4SM FEW190 14/14 A3003 RMK AO1 SLP165
SPECI CYNL 301122Z AUTO 00000KT 1 1/2SM FEW190 14/14 A3003 RMK AO1 SLP165
SPECI CYNL 301120Z AUTO 00000KT 2 1/2SM SCT190 14/14 A3003 RMK AO1 SLP166
SPECI CYNL 301105Z AUTO 26003KT 3SM FEW200 13/13 A3004 RMK AO1 SLP167
SPECI CYNL 301104Z AUTO 26004KT 2 1/2SM FEW200 13/13 A3004 RMK AO1 SLP166
SPECI CYNL 301103Z AUTO 25004KT 1 3/4SM FEW200 13/13 A3004 RMK AO1 SLP166
SPECI CYNL 301102Z AUTO 25003KT 1SM FEW200 13/13 A3004 RMK AO1 SLP166
METAR CYNL 301100Z AUTO 00000KT 3/8SM FEW200 13/13 A3004 RMK AO1 SLP166
SPECI CYNL 301048Z AUTO 25006KT 1/4SM FEW200 13/13 A3004 RMK AO1 SLP163
SPECI CYNL 301016Z AUTO 00000KT 1/8SM CLR 14/14 A3003 RMK AO1 SLP160
SPECI CYNL 301013Z AUTO 00000KT 1/2SM CLR 13/13 A3003 RMK AO1 SLP159
SPECI CYNL 301009Z AUTO 00000KT 1 1/2SM CLR 14/14 A3003 RMK AO1 SLP160
SPECI CYNL 301008Z AUTO 00000KT 1SM CLR 14/14 A3003 RMK AO1 SLP160
METAR CYNL 301000Z AUTO 27004KT 3/8SM CLR 13/13 A3003 RMK AO1 SLP161
SPECI CYNL 300958Z AUTO 28004KT 1/4SM CLR 13/13 A3003 RMK AO1 SLP161
SPECI CYNL 300953Z AUTO 27004KT 1/8SM CLR 13/13 A3003 RMK AO1 SLP162
SPECI CYNL 300951Z AUTO 27003KT 3/8SM CLR 13/13 A3003 RMK AO1 SLP162
SPECI CYNL 300950Z AUTO 27003KT 1 1/4SM CLR 13/13 A3003 RMK AO1 SLP162
SPECI CYNL 300943Z AUTO 00000KT 4SM CLR 13/13 A3004 RMK AO1 SLP163
SPECI CYNL 300942Z AUTO 00000KT 2SM CLR 13/13 A3003 RMK AO1 SLP163
SPECI CYNL 300939Z AUTO 00000KT 3/8SM CLR 13/13 A3003 RMK AO1 SLP163
SPECI CYNL 300938Z AUTO 00000KT 1SM CLR 13/13 A3003 RMK AO1 SLP162
SPECI CYNL 300935Z AUTO 00000KT 9SM CLR 13/13 A3003 RMK AO1 SLP162
SPECI CYNL 300934Z AUTO 00000KT 2 1/2SM CLR 14/14 A3003 RMK AO1 SLP162
SPECI CYNL 300932Z AUTO 00000KT 1 3/4SM CLR 14/14 A3003 RMK AO1 SLP161
METAR CYNL 300900Z AUTO 27002KT 9SM CLR 14/14 A3004 RMK AO1 SLP162
SPECI CYNL 300830Z AUTO 29003KT 3SM CLR 15/15 A3003 RMK AO1 SLP163
SPECI CYNL 300829Z AUTO 29002KT 1 3/4SM CLR 15/15 A3003 RMK AO1 SLP163
SPECI CYNL 300826Z AUTO 29002KT 1SM CLR 15/15 A3003 RMK AO1 SLP163
SPECI CYNL 300820Z AUTO 00000KT 5/8SM CLR 15/15 A3004 RMK AO1 SLP164
SPECI CYNL 300819Z AUTO 00000KT 1 3/4SM CLR 15/15 A3004 RMK AO1 SLP164
METAR CYNL 300800Z AUTO 27003KT 9SM CLR 15/15 A3004 RMK AO1 SLP165
METAR CYNL 300700Z AUTO 30002KT 9SM CLR 15/15 A3004 RMK AO1 SLP161
METAR CYNL 300600Z AUTO 31003KT 9SM CLR 16/16 A3004 RMK AO1 SLP158
METAR CYNL 300500Z AUTO 30005KT 9SM CLR 17/17 A3003 RMK AO1 SLP152
METAR CYNL 300400Z AUTO 29004KT 9SM CLR 18/18 A3001 RMK AO1 SLP145
METAR CYNL 300300Z AUTO 28003KT 9SM CLR 19/18 A3001 RMK AO1 SLP144
METAR CYNL 300200Z AUTO 31003KT 9SM FEW017 SCT027 21/19 A2999 RMK AO1 PRESRR SLP139
METAR CYNL 300100Z AUTO 31004KT 9SM FEW140 19/19 A2997 RMK AO1 SLP134
METAR CYNL 300000Z AUTO 01005KT 9SM FEW030 18/18 A2995 RMK AO1 SLP132
SPECI CYNL 292338Z AUTO 27012G19KT 190V340 9SM FEW008 SCT015 BKN034 18/17 A2996 RMK AO1 WSHFT (23)29 SLP137
SPECI CYNL 292331Z AUTO 18014G20KT 140V230 9SM SCT010 BKN027 BKN036 18/17 A2997 RMK AO1 WSHFT (23)29 SLP140
SPECI CYNL 292330Z AUTO 18014G20KT 140V230 9SM SCT010 BKN018 BKN036 18/17 A2997 RMK AO1 WSHFT (23)29 SLP140
SPECI CYNL 292329Z AUTO 18014G20KT 140V220 1 1/2SM VV012 18/16 A2997 RMK AO1 WSHFT (23)29 SLP140
SPECI CYNL 292327Z AUTO 18014G20KT 140V220 1/4SM VV013 18/17 A2998 RMK AO1 WSHFT (23)24 SLP143
SPECI CYNL 292324Z AUTO 16012G20KT 1/8SM SCT013 BKN036 BKN076 19/17 A2999 RMK AO1 WSHFT (23)24 SLP147
SPECI CYNL 292323Z AUTO 18014G20KT 1/8SM SCT014 BKN035 BKN076 19/17 A3000 RMK AO1 SLP149
SPECI CYNL 292321Z AUTO 21014KT 1/2SM FEW014 SCT027 BKN036 20/18 A3000 RMK AO1 SLP148
METAR CYNL 292300Z AUTO 28003KT 9SM FEW078 21/20 A2997 RMK AO1 SLP138
METAR CYNL 292200Z AUTO 34004KT 9SM FEW066 21/18 A2995 RMK AO1 SLP131
METAR CYNL 292100Z AUTO 26003KT 230V290 9SM FEW003 SCT034 OVC072 18/18 A2995 RMK AO1 PRESRR SLP131
SPECI CYNL 292054Z AUTO 27003KT 230V310 4SM FEW003 BKN036 OVC070 18/18 A2995 RMK AO1 SLP131
SPECI CYNL 292053Z AUTO 27003KT 240V310 2SM FEW003 BKN036 BKN049 18/18 A2995 RMK AO1 SLP130
SPECI CYNL 292051Z AUTO 27003KT 220V310 1 1/2SM FEW003 BKN036 BKN049 18/18 A2995 RMK AO1 SLP131
SPECI CYNL 292046Z AUTO 00000KT 1 1/4SM FEW004 BKN038 BKN054 18/18 A2995 RMK AO1 SLP133
SPECI CYNL 292045Z AUTO 00000KT 1 1/4SM FEW025 BKN042 OVC072 19/18 A2996 RMK AO1 SLP133
SPECI CYNL 292044Z AUTO 26004KT 220V290 1 1/2SM BKN037 BKN054 OVC072 19/18 A2996 RMK AO1 SLP133
SPECI CYNL 292037Z AUTO 28003KT 4SM VV035 19/18 A2995 RMK AO1 SLP131
SPECI CYNL 292036Z AUTO 28004KT 2SM VV035 19/18 A2995 RMK AO1 SLP130
SPECI CYNL 292035Z AUTO 29004KT 1 1/2SM VV034 19/18 A2994 RMK AO1 SLP129
SPECI CYNL 292034Z AUTO 30004KT 1SM VV035 19/18 A2994 RMK AO1 SLP128
SPECI CYNL 292033Z AUTO 31004KT 3/4SM VV036 19/18 A2994 RMK AO1 SLP127
SPECI CYNL 292032Z AUTO 31005KT 5/8SM VV037 19/18 A2994 RMK AO1 SLP127
SPECI CYNL 292030Z AUTO 31005KT 3/4SM VV039 19/18 A2994 RMK AO1 SLP128
SPECI CYNL 292028Z AUTO 30008KT 1 1/4SM VV041 19/18 A2995 RMK AO1 SLP130
SPECI CYNL 292026Z AUTO 30007KT 1 1/2SM VV038 19/18 A2995 RMK AO1 SLP130
SPECI CYNL 292020Z AUTO 30007KT 1 1/4SM BKN054 BKN074 19/18 A2994 RMK AO1 SLP126
SPECI CYNL 292019Z AUTO 31009KT 1 1/2SM BKN056 19/18 A2993 RMK AO1 SLP125
SPECI CYNL 292017Z AUTO 30009KT 2 1/2SM BKN056 20/18 A2993 RMK AO1 SLP124
METAR CYNL 292000Z AUTO 31009KT 9SM SCT058 BKN220 21/17 A2992 RMK AO1 SLP120
METAR CYNL 291900Z AUTO 32008KT 9SM BKN045 23/17 A2993 RMK AO1 PRESRR SLP118
SPECI CYNL 291838Z AUTO 27011G19KT 210V320 9SM FEW042 SCT180 26/17 A2991 RMK AO1 WSHFT (18)38 SLP110
METAR CYNL 291800Z AUTO 27004KT 9SM FEW070 26/15 A2990 RMK AO1 SLP107
METAR CYNL 291700Z AUTO 19006KT 9SM CLR 26/15 A2989 RMK AO1 SLP103
METAR CYNL 291600Z AUTO 20005KT 9SM CLR 24/15 A2989 RMK AO1 SLP105
METAR CYNL 291500Z AUTO 20006KT 9SM CLR 23/15 A2990 RMK AO1 SLP106
METAR CYNL 291400Z AUTO 18009KT 9SM CLR 21/14 A2989 RMK AO1 SLP105
METAR CYNL 291300Z AUTO 16006KT 9SM CLR 18/13 A2990 RMK AO1 SLP109
METAR CYNL 291200Z AUTO 16006KT 9SM CLR 18/13 A2990 RMK AO1 SLP105
METAR CYNL 291100Z AUTO 17008KT 9SM CLR 17/13 A2989 RMK AO1 SLP103
METAR CYNL 291000Z AUTO 17006KT 9SM CLR 18/13 A2989 RMK AO1 SLP102
METAR CYNL 290900Z AUTO 17008KT 9SM CLR 19/13 A2989 RMK AO1 SLP102
METAR CYNL 290800Z AUTO 17007KT 9SM CLR 19/13 A2989 RMK AO1 SLP101
METAR CYNL 290700Z AUTO 18010G16KT 9SM CLR 20/13 A2989 RMK AO1 SLP100
METAR CYNL 290600Z AUTO 15007KT 9SM CLR 20/12 A2988 RMK AO1 SLP096
METAR CYNL 290500Z AUTO 15008KT 9SM CLR 20/11 A2988 RMK AO1 SLP099
METAR CYNL 290400Z AUTO 14009G15KT 9SM CLR 21/11 A2988 RMK AO1 SLP098
METAR CYNL 290300Z AUTO 14010G17KT 9SM CLR 23/12 A2988 RMK AO1 SLP098
METAR CYNL 290200Z AUTO 13009G15KT 9SM CLR 24/13 A2987 RMK AO1 SLP097
METAR CYNL 290100Z AUTO 14013KT 9SM CLR 27/13 A2987 RMK AO1 SLP096
METAR CYNL 290000Z AUTO 15009KT 9SM CLR 28/12 A2987 RMK AO1 SLP097
METAR CYNL 282300Z AUTO 16010G18KT 9SM CLR 28/10 A2988 RMK AO1 SLP101
METAR CYNL 282200Z AUTO 15011G17KT 9SM CLR 28/09 A2988 RMK AO1 SLP103
METAR CYNL 282100Z AUTO 17007KT 9SM CLR 28/10 A2989 RMK AO1 SLP105
METAR CYNL 282000Z AUTO 17009G17KT 9SM CLR 28/10 A2989 RMK AO1 SLP106
METAR CYNL 281900Z AUTO 18009KT 9SM CLR 27/10 A2990 RMK AO1 SLP110
METAR CYNL 281800Z AUTO 16009KT 9SM CLR 25/11 A2991 RMK AO1 SLP115
METAR CYNL 281700Z AUTO 19009KT 9SM CLR 24/11 A2992 RMK AO1 SLP121
METAR CYNL 281600Z AUTO 17005KT 9SM CLR 22/11 A2992 RMK AO1 SLP122
METAR CYNL 281500Z AUTO 19010KT 9SM CLR 20/11 A2992 RMK AO1 SLP122
METAR CYNL 281400Z AUTO 18007KT 9SM CLR 18/12 A2993 RMK AO1 SLP123
METAR CYNL 281300Z AUTO 18006KT 9SM CLR 16/12 A2994 RMK AO1 SLP127
METAR CYNL 281200Z AUTO 15004KT 9SM CLR 14/12 A2994 RMK AO1 SLP127
METAR CYNL 281100Z AUTO 15003KT 9SM CLR 13/11 A2994 RMK AO1 SLP127
METAR CYNL 281000Z AUTO 17005KT 9SM CLR 14/11 A2993 RMK AO1 SLP124
METAR CYNL 280900Z AUTO 18005KT 9SM CLR 14/11 A2993 RMK AO1 SLP124
METAR CYNL 280800Z AUTO 18004KT 9SM CLR 13/12 A2994 RMK AO1 SLP127
METAR CYNL 280700Z AUTO 14003KT 9SM CLR 13/11 A2993 RMK AO1 SLP125
METAR CYNL 280600Z AUTO 00000KT 9SM CLR 13/11 A2993 RMK AO1 SLP128
METAR CYNL 280500Z AUTO 00000KT 9SM CLR 14/10 A2992 RMK AO1 SLP124
METAR CYNL 280400Z AUTO 00000KT 9SM CLR 17/11 A2992 RMK AO1 SLP122
METAR CYNL 280300Z AUTO 14003KT 9SM CLR 21/10 A2992 RMK AO1 SLP115
METAR CYNL 280200Z AUTO 35003KT 9SM CLR 23/07 A2991 RMK AO1 SLP113
METAR CYNL 280100Z AUTO 35004KT 9SM CLR 24/07 A2991 RMK AO1 SLP114
METAR CYNL 280000Z AUTO 00005KT 9SM CLR 24/07 A2992 RMK AO1 SLP119
METAR CYNL 272300Z AUTO 31006KT 9SM CLR 24/07 A2993 RMK AO1 SLP123
METAR CYNL 272200Z AUTO 32005KT 9SM CLR 24/08 A2994 RMK AO1 SLP128
METAR CYNL 272100Z AUTO 32008KT 9SM FEW052 23/09 A2994 RMK AO1 SLP129
METAR CYNL 272000Z AUTO 35006G16KT 9SM CLR 22/09 A2994 RMK AO1 SLP130
METAR CYNL 271900Z AUTO 32007KT 9SM FEW045 21/09 A2995 RMK AO1 SLP133
METAR CYNL 271800Z AUTO 31010G16KT 9SM FEW045 21/10 A2995 RMK AO1 SLP133
METAR CYNL 271700Z AUTO 34008KT 9SM FEW050 20/10 A2995 RMK AO1 SLP133
METAR CYNL 271600Z AUTO 33009KT 9SM SCT030 19/11 A2995 RMK AO1 SLP132
METAR CYNL 271500Z AUTO 33009KT 9SM CLR 19/11 A2994 RMK AO1 SLP131
METAR CYNL 271400Z AUTO 32008KT 9SM CLR 17/12 A2994 RMK AO1 SLP131
METAR CYNL 271300Z AUTO 32006KT 9SM CLR 16/12 A2994 RMK AO1 SLP130
METAR CYNL 271200Z AUTO 31006KT 9SM CLR 14/12 A2993 RMK AO1 SLP131
METAR CYNL 271100Z AUTO 30005KT 9SM CLR 13/11 A2993 RMK AO1 SLP132
METAR CYNL 271000Z AUTO 29004KT 9SM CLR 13/11 A2993 RMK AO1 SLP131
METAR CYNL 270900Z AUTO 29004KT 9SM CLR 14/11 A2992 RMK AO1 SLP130
METAR CYNL 270800Z AUTO 30005KT 9SM CLR 15/11 A2991 RMK AO1 SLP120
METAR CYNL 270700Z AUTO 30005KT 9SM CLR 15/11 A2991 RMK AO1 SLP121
METAR CYNL 270600Z AUTO 28005KT 9SM FEW062 SCT084 16/11 A2990 RMK AO1 SLP118
METAR CYNL 270500Z AUTO 29005KT 9SM OVC090 16/12 A2990 RMK AO1 SLP117
METAR CYNL 270400Z AUTO 28004KT 9SM FEW092 16/12 A2989 RMK AO1 SLP117
METAR CYNL 270300Z AUTO 28005KT 9SM BKN080 17/12 A2989 RMK AO1 SLP114
METAR CYNL 270200Z AUTO 29008G16KT 9SM CLR 19/12 A2988 RMK AO1 SLP110
METAR CYNL 270100Z AUTO 30007G15KT 9SM CLR 18/13 A2989 RMK AO1 SLP113
METAR CYNL 270000Z AUTO 29006KT 9SM CLR 17/13 A2989 RMK AO1 SLP115
METAR CYNL 262300Z AUTO 31007KT 9SM FEW082 16/13 A2988 RMK AO1 SLP114
METAR CYNL 262200Z AUTO 31007G18KT 9SM SCT017 BKN035 15/14 A2989 RMK AO1 PRESRR SLP118
SPECI CYNL 262155Z AUTO 31010G18KT 9SM FEW011 SCT020 BKN035 15/13 A2989 RMK AO1 SLP118
SPECI CYNL 262153Z AUTO 32009G17KT 6SM VV023 15/13 A2989 RMK AO1 SLP118
SPECI CYNL 262151Z AUTO 32009G17KT 5SM VV029 15/13 A2989 RMK AO1 SLP119
SPECI CYNL 262146Z AUTO 33010G18KT 4SM VV030 15/13 A2989 RMK AO1 SLP119
SPECI CYNL 262144Z AUTO 33011G21KT 3SM VV026 15/13 A2989 RMK AO1 SLP119
SPECI CYNL 262141Z AUTO 32009G21KT 1 3/4SM VV020 15/14 A2989 RMK AO1 SLP119
SPECI CYNL 262139Z AUTO 31011G21KT 2SM VV021 15/14 A2989 RMK AO1 SLP119
SPECI CYNL 262138Z AUTO 31010G21KT 1 1/2SM FEW003 BKN034 BKN048 15/14 A2989 RMK AO1 SLP118
SPECI CYNL 262137Z AUTO 32011G21KT 1SM FEW003 BKN034 BKN048 15/13 A2989 RMK AO1 SLP118
SPECI CYNL 262136Z AUTO 32013G21KT 5/8SM FEW003 BKN034 BKN048 15/13 A2989 RMK AO1 SLP118
SPECI CYNL 262133Z AUTO 33011G20KT 5/8SM FEW018 SCT034 BKN047 16/13 A2989 RMK AO1 SLP117
SPECI CYNL 262132Z AUTO 33008G16KT 2 1/2SM SCT034 BKN047 16/14 A2988 RMK AO1 SLP116
SPECI CYNL 262130Z AUTO 32005KT 6SM SCT036 BKN048 16/14 A2988 RMK AO1 SLP114
SPECI CYNL 262129Z AUTO 33005KT 1 1/2SM SCT037 BKN048 16/14 A2988 RMK AO1 SLP114
SPECI CYNL 262127Z AUTO 34007KT 1 1/4SM SCT036 BKN048 16/13 A2988 RMK AO1 WSHFT (21)14 SLP113
SPECI CYNL 262118Z AUTO 34008G20KT 4SM BKN036 BKN048 17/13 A2987 RMK AO1 WSHFT (21)14 SLP110
SPECI CYNL 262117Z AUTO 33009G20KT 2SM FEW036 BKN045 17/13 A2987 RMK AO1 WSHFT (21)14 SLP110
SPECI CYNL 262115Z AUTO 33015G20KT 1 1/2SM SCT035 BKN048 18/13 A2987 RMK AO1 WSHFT (21)14 SLP109
SPECI CYNL 262114Z AUTO 33012G20KT 2SM SCT035 BKN048 18/12 A2987 RMK AO1 WSHFT (21)14 SLP108
METAR CYNL 262100Z AUTO 29010G15KT 9SM SCT034 BKN190 19/11 A2986 RMK AO1 SLP103
METAR CYNL 262000Z AUTO 32010G18KT 5SM SCT026 BKN042 18/13 A2986 RMK AO1 SLP105
METAR CYNL 261900Z AUTO 31012G17KT 9SM FEW024 SCT210 18/11 A2985 RMK AO1 SLP100
METAR CYNL 261800Z AUTO 30012G20KT 9SM FEW160 17/11 A2984 RMK AO1 SLP098
METAR CYNL 261700Z AUTO 33009KT 9SM FEW023 BKN086 17/11 A2984 RMK AO1 SLP096
METAR CYNL 261600Z AUTO 32008KT 9SM FEW098 17/11 A2982 RMK AO1 SLP092
METAR CYNL 261500Z AUTO 31008KT 9SM FEW210 16/12 A2982 RMK AO1 SLP090
METAR CYNL 261400Z AUTO 33004KT 9SM FEW110 16/12 A2981 RMK AO1 SLP088
METAR CYNL 261300Z AUTO 32005KT 9SM BKN040 15/12 A2980 RMK AO1 SLP086
METAR CYNL 261200Z AUTO 32004KT 9SM FEW034 BKN110 15/12 A2980 RMK AO1 SLP085
METAR CYNL 261100Z AUTO 31004KT 9SM FEW100 BKN120 14/13 A2978 RMK AO1 SLP076
METAR CYNL 261000Z AUTO 30004KT 9SM FEW088 15/12 A2977 RMK AO1 SLP071
METAR CYNL 260900Z AUTO 32005KT 9SM BKN092 15/12 A2976 RMK AO1 SLP067
METAR CYNL 260800Z AUTO 31005KT 9SM SCT088 BKN110 15/12 A2976 RMK AO1 SLP066
METAR CYNL 260700Z AUTO 33006KT 9SM FEW110 16/12 A2974 RMK AO1 SLP059
METAR CYNL 260600Z AUTO 32007KT 9SM OVC076 16/12 A2975 RMK AO1 SLP063
METAR CYNL 260500Z AUTO 32006KT 9SM BKN078 17/12 A2975 RMK AO1 SLP060
METAR CYNL 260400Z AUTO 33005KT 9SM OVC084 17/12 A2975 RMK AO1 SLP059
METAR CYNL 260300Z AUTO 33008KT 9SM BKN094 17/12 A2973 RMK AO1 SLP056
METAR CYNL 260200Z AUTO 33005KT 9SM CLR 17/13 A2973 RMK AO1 SLP056
SPECI CYNL 260128Z AUTO 01003KT 9SM FEW008 SCT066 16/13 A2974 RMK AO1 SLP061
METAR CYNL 260100Z AUTO 02006KT 4SM FEW029 BKN046 OVC068 16/13 A2974 RMK AO1 SLP061
SPECI CYNL 260056Z AUTO 02007KT 3SM FEW029 BKN047 OVC068 16/13 A2974 RMK AO1 SLP063
SPECI CYNL 260053Z AUTO 01007KT 2SM FEW029 OVC046 16/13 A2974 RMK AO1 SLP063
SPECI CYNL 260050Z AUTO 01008KT 1 1/2SM FEW029 OVC046 16/13 A2974 RMK AO1 SLP063
SPECI CYNL 260048Z AUTO 01010KT 2 1/2SM FEW029 OVC046 16/13 A2974 RMK AO1 SLP063
SPECI CYNL 260043Z AUTO 02011KT 3SM VV030 17/13 A2974 RMK AO1 SLP062
SPECI CYNL 260041Z AUTO 03011KT 3SM VV028 17/13 A2974 RMK AO1 SLP061
SPECI CYNL 260034Z AUTO 02008KT 2 1/2SM BKN046 18/13 A2974 RMK AO1 SLP060
METAR CYNL 260000Z AUTO 32006KT 9SM SCT072 21/10 A2973 RMK AO1 SLP054
METAR CYNL 252300Z AUTO 35005KT 9SM FEW066 SCT220 21/11 A2972 RMK AO1 SLP054
METAR CYNL 252200Z AUTO 35007KT 9SM FEW047 SCT180 22/11 A2972 RMK AO1 SLP056
METAR CYNL 252100Z AUTO 35006KT 9SM SCT088 21/10 A2972 RMK AO1 SLP057
SPECI CYNL 252024Z AUTO VRB02KT 4SM FEW058 22/10 A2973 RMK AO1 SLP057
SPECI CYNL 252022Z AUTO 00000KT 2SM FEW058 22/10 A2973 RMK AO1 SLP057
METAR CYNL 252000Z AUTO 05006KT 9SM FEW062 SCT082 22/10 A2973 RMK AO1 SLP057
METAR CYNL 251900Z AUTO 02005KT 350V060 9SM SCT074 BKN170 21/10 A2974 RMK AO1 SLP062
METAR CYNL 251800Z AUTO 00006KT 310V040 9SM FEW048 22/09 A2974 RMK AO1 SLP060
METAR CYNL 251700Z AUTO 34005KT 310V020 9SM CLR 22/09 A2975 RMK AO1 SLP062
METAR CYNL 251600Z AUTO 01004KT 9SM CLR 21/10 A2975 RMK AO1 SLP064
METAR CYNL 251500Z AUTO 00000KT 9SM CLR 20/10 A2975 RMK AO1 SLP064
METAR CYNL 251400Z AUTO 00004KT 9SM CLR 19/11 A2975 RMK AO1 SLP063
METAR CYNL 251300Z AUTO 34004KT 9SM CLR 17/12 A2976 RMK AO1 SLP066
METAR CYNL 251200Z AUTO 00000KT 9SM CLR 14/12 A2976 RMK AO1 SLP068
METAR CYNL 251100Z AUTO 28004KT 9SM CLR 13/12 A2976 RMK AO1 SLP069
METAR CYNL 251000Z AUTO 27004KT 9SM CLR 12/12 A2975 RMK AO1 SLP067
METAR CYNL 250900Z AUTO 28003KT 9SM CLR 13/12 A2974 RMK AO1 SLP063
METAR CYNL 250800Z AUTO 30004KT 9SM CLR 13/13 A2974 RMK AO1 SLP061
METAR CYNL 250700Z AUTO 29004KT 9SM CLR 14/13 A2973 RMK AO1 SLP058
METAR CYNL 250600Z AUTO 28004KT 9SM CLR 14/13 A2972 RMK AO1 SLP054
METAR CYNL 250500Z AUTO 28003KT 9SM CLR 14/13 A2970 RMK AO1 SLP050
METAR CYNL 250400Z AUTO 26003KT 9SM CLR 16/13 A2969 RMK AO1 SLP045
METAR CYNL 250300Z AUTO 27003KT 9SM CLR 19/13 A2968 RMK AO1 SLP038
METAR CYNL 250200Z AUTO 28008KT 9SM CLR 20/12 A2967 RMK AO1 SLP033
METAR CYNL 250100Z AUTO 30009G18KT 9SM CLR 20/12 A2966 RMK AO1 SLP031
METAR CYNL 250000Z AUTO 29009G16KT 9SM FEW027 20/12 A2965 RMK AO1 SLP028
METAR CYNL 242300Z AUTO 28008G19KT 9SM FEW025 BKN038 19/13 A2965 RMK AO1 SLP028
METAR CYNL 242200Z AUTO 27012G19KT 9SM OVC040 21/13 A2963 RMK AO1 PRESRR SLP021
METAR CYNL 242100Z AUTO 29014KT 9SM SCT027 BKN037 20/14 A2961 RMK AO1 PRESRR SLP015
METAR CYNL 242000Z AUTO 28012G21KT 9SM SCT047 21/15 A2958 RMK AO1 PRESRR SLP005
SPECI CYNL 241902Z AUTO 25009G16KT 9SM SCT019 BKN030 21/16 A2956 RMK AO1 SLP997
METAR CYNL 241900Z AUTO 26010G16KT 9SM SCT019 BKN025 21/16 A2956 RMK AO1 SLP997
SPECI CYNL 241845Z AUTO 26008G17KT 9SM SCT019 BKN024 21/16 A2956 RMK AO1 SLP994
SPECI CYNL 241844Z AUTO 26010G17KT 9SM SCT019 BKN190 21/16 A2955 RMK AO1 SLP994
METAR CYNL 241800Z AUTO 26009G17KT 9SM BKN017 OVC021 20/16 A2954 RMK AO1 SLP991
SPECI CYNL 241739Z AUTO 27008KT 9SM BKN015 BKN020 20/16 A2954 RMK AO1 PRESRR SLP989
SPECI CYNL 241731Z AUTO 28006KT 9SM BKN014 OVC180 20/17 A2954 RMK AO1 PRESRR SLP989
SPECI CYNL 241715Z AUTO 25008KT 9SM SCT011 BKN015 BKN021 20/17 A2954 RMK AO1 PRESRR SLP988
SPECI CYNL 241711Z AUTO 25010KT 9SM SCT011 BKN014 BKN020 20/17 A2954 RMK AO1 PRESRR SLP988
SPECI CYNL 241710Z AUTO 25010KT 9SM SCT011 BKN015 20/17 A2954 RMK AO1 PRESRR SLP988
METAR CYNL 241700Z AUTO 24009KT 9SM FEW007 SCT011 BKN014 19/17 A2953 RMK AO1 PRESRR SLP987
SPECI CYNL 241645Z AUTO 16008KT 9SM SCT006 BKN010 OVC015 19/19 A2952 RMK AO1 SLP983
SPECI CYNL 241622Z AUTO 16011G16KT 9SM OVC005 19/19 A2952 RMK AO1 SLP983
METAR CYNL 241600Z AUTO 16010KT 9SM OVC003 19/19 A2951 RMK AO1 SLP980
SPECI CYNL 241513Z AUTO 15011KT 4SM OVC004 18/18 A2951 RMK AO1 SLP978
METAR CYNL 241500Z AUTO 15012KT 9SM OVC005 18/18 A2951 RMK AO1 SLP978
SPECI CYNL 241406Z AUTO 15014G20KT 9SM BKN009 OVC012 18/17 A2950 RMK AO1 SLP975
METAR CYNL 241400Z AUTO 14011G20KT 9SM OVC010 18/17 A2950 RMK AO1 SLP975
SPECI CYNL 241329Z AUTO 13013KT 9SM BKN012 OVC034 18/17 A2951 RMK AO1 PRESFR SLP974
SPECI CYNL 241327Z AUTO 13012KT 9SM SCT012 BKN015 OVC034 18/17 A2951 RMK AO1 PRESFR SLP974
METAR CYNL 241300Z AUTO 13012KT 9SM SCT009 BKN032 18/18 A2952 RMK AO1 PRESFR SLP978
SPECI CYNL 241255Z AUTO 13012KT 9SM SCT009 OVC031 18/18 A2952 RMK AO1 SLP977
SPECI CYNL 241250Z AUTO 13010G16KT 9SM BKN009 OVC029 18/18 A2952 RMK AO1 SLP978
SPECI CYNL 241246Z AUTO 13010G16KT 9SM SCT009 BKN013 OVC029 18/18 A2953 RMK AO1 SLP979
SPECI CYNL 241240Z AUTO 13009KT 9SM SCT009 BKN028 OVC035 18/18 A2953 RMK AO1 SLP980
SPECI CYNL 241237Z AUTO 13008KT 9SM SCT009 BKN013 BKN035 18/18 A2953 RMK AO1 SLP981
SPECI CYNL 241236Z AUTO 12008KT 9SM BKN009 BKN035 18/18 A2953 RMK AO1 SLP981
SPECI CYNL 241234Z AUTO 12010KT 9SM SCT009 BKN013 BKN034 18/18 A2953 RMK AO1 SLP981
SPECI CYNL 241233Z AUTO 13009KT 9SM SCT010 BKN013 BKN034 18/18 A2953 RMK AO1 SLP981
METAR CYNL 241200Z AUTO 12008KT 18/18 A2955 RMK AO1 SLP987
METAR CYNL 241100Z AUTO 09008KT 17/17 A2956 RMK AO1 PRESFR SLP991
SPECI CYNL 241046Z AUTO 08006KT 9SM SCT002 17/17 A2957 RMK AO1 PRESFR SLP994
SPECI CYNL 241045Z AUTO 08006KT 9SM SCT002 BKN027 17/17 A2957 RMK AO1 PRESFR SLP994
SPECI CYNL 241041Z AUTO 07005KT 8SM SCT002 BKN008 17/17 A2957 RMK AO1 PRESFR SLP994
SPECI CYNL 241038Z AUTO 07007KT 6SM BKN002 BKN046 17/17 A2957 RMK AO1 PRESFR SLP994
SPECI CYNL 241033Z AUTO 08006KT 7SM VV004 17/17 A2957 RMK AO1 PRESFR SLP995
SPECI CYNL 241030Z AUTO 07006KT 8SM BKN002 17/17 A2957 RMK AO1 PRESFR SLP996
SPECI CYNL 241027Z AUTO 06005KT 4SM SCT002 BKN008 17/17 A2957 RMK AO1 PRESFR SLP997
SPECI CYNL 241026Z AUTO 06005KT 4SM SCT002 BKN017 17/17 A2957 RMK AO1 PRESFR SLP997
SPECI CYNL 241022Z AUTO 09007KT 8SM FEW003 SCT010 BKN025 17/17 A2957 RMK AO1 PRESFR SLP996
SPECI CYNL 241021Z AUTO 09007KT 8SM FEW003 SCT010 BKN042 17/17 A2957 RMK AO1 PRESFR SLP997
SPECI CYNL 241020Z AUTO 10007KT 7SM VV018 17/17 A2957 RMK AO1 PRESFR SLP997
SPECI CYNL 241007Z AUTO 09004KT 9SM FEW006 SCT024 BKN036 17/17 A2959 RMK AO1 PRESFR SLP004
SPECI CYNL 241006Z AUTO 09004KT 8SM FEW006 SCT016 BKN025 17/17 A2960 RMK AO1 PRESFR SLP004
SPECI CYNL 241003Z AUTO 08005KT 5SM VV023 17/17 A2959 RMK AO1 PRESFR SLP002
METAR CYNL 241000Z AUTO 07008KT 5SM VV028 17/17 A2959 RMK AO1 PRESFR SLP002
SPECI CYNL 240959Z AUTO 07008KT 5SM VV029 17/17 A2959 RMK AO1 PRESFR SLP002
SPECI CYNL 240958Z AUTO 06009KT 4SM VV030 17/17 A2959 RMK AO1 PRESFR SLP001
SPECI CYNL 240949Z AUTO 09008KT 2 1/2SM VV032 17/17 A2961 RMK AO1 SLP009
SPECI CYNL 240948Z AUTO 09008KT 2 1/2SM VV027 17/17 A2961 RMK AO1 SLP010
SPECI CYNL 240947Z AUTO 10009KT 2SM VV022 17/17 A2962 RMK AO1 SLP011
SPECI CYNL 240945Z AUTO 09008KT 1 1/2SM VV020 17/17 A2962 RMK AO1 SLP012
SPECI CYNL 240944Z AUTO 09008KT 1SM VV016 16/16 A2962 RMK AO1 SLP013
SPECI CYNL 240940Z AUTO 11008KT 1/4SM SCT008 BKN018 OVC058 17/17 A2963 RMK AO1 SLP015
SPECI CYNL 240938Z AUTO 13007KT 1/2SM FEW007 SCT019 BKN036 17/16 A2963 RMK AO1 SLP016
SPECI CYNL 240937Z AUTO 13007KT 1SM FEW009 SCT019 BKN036 17/16 A2963 RMK AO1 SLP015
SPECI CYNL 240936Z AUTO 12006KT 2SM FEW009 BKN021 OVC056 17/16 A2962 RMK AO1 SLP014
SPECI CYNL 240931Z AUTO 09004KT 5SM SCT009 BKN042 OVC056 17/16 A2962 RMK AO1 SLP011
SPECI CYNL 240929Z AUTO 09004KT 7SM VV029 17/16 A2962 RMK AO1 SLP011
SPECI CYNL 240921Z AUTO 07004KT 7SM SCT009 BKN030 OVC052 17/16 A2961 RMK AO1 SLP010
SPECI CYNL 240919Z AUTO 07004KT 8SM VV014 17/16 A2962 RMK AO1 SLP010
SPECI CYNL 240917Z AUTO 06004KT 9SM VV023 17/16 A2962 RMK AO1 SLP011
SPECI CYNL 240913Z AUTO 05005KT 5SM VV025 17/16 A2962 RMK AO1 SLP011
SPECI CYNL 240911Z AUTO 05005KT 5SM VV018 17/16 A2962 RMK AO1 SLP012
SPECI CYNL 240906Z AUTO 05005KT 7SM VV013 17/16 A2963 RMK AO1 SLP015
SPECI CYNL 240904Z AUTO 05005KT 7SM FEW008 SCT045 BKN058 17/16 A2963 RMK AO1 SLP016
METAR CYNL 240900Z AUTO 05004KT 6SM FEW016 BKN056 OVC072 17/16 A2964 RMK AO1 SLP017
SPECI CYNL 240823Z AUTO 00000KT 9SM FEW007 SCT023 BKN058 17/16 A2964 RMK AO1 PRESFR SLP020
SPECI CYNL 240818Z AUTO 03002KT 9SM SCT007 BKN028 17/16 A2964 RMK AO1 PRESFR SLP019
METAR CYNL 240800Z AUTO 33004KT 9SM SCT007 BKN060 17/16 A2963 RMK AO1 PRESFR SLP017
SPECI CYNL 240757Z AUTO 31004KT 9SM SCT007 BKN050 BKN068 17/16 A2964 RMK AO1 PRESFR SLP018
SPECI CYNL 240755Z AUTO VRB03KT 9SM VV008 17/16 A2964 RMK AO1 PRESFR SLP018
SPECI CYNL 240754Z AUTO 34003KT 310V010 9SM VV013 17/16 A2964 RMK AO1 PRESFR SLP018
SPECI CYNL 240745Z AUTO 01003KT 9SM VV015 17/15 A2964 RMK AO1 PRESFR SLP017
SPECI CYNL 240742Z AUTO 01006KT 9SM FEW008 OVC056 17/15 A2964 RMK AO1 PRESFR SLP017
METAR CYNL 240700Z AUTO 06005KT 9SM SCT048 BKN086 18/14 A2966 RMK AO1 PRESFR SLP024
METAR CYNL 240600Z AUTO 08004KT 9SM FEW160 19/12 A2968 RMK AO1 SLP031
METAR CYNL 240500Z AUTO 08004KT 9SM FEW130 SCT200 19/12 A2969 RMK AO1 SLP036
METAR CYNL 240400Z AUTO 07004KT 9SM CLR 20/11 A2970 RMK AO1 SLP039
METAR CYNL 240300Z AUTO 10005KT 9SM CLR 23/11 A2971 RMK AO1 SLP039
METAR CYNL 240200Z AUTO 13007KT 9SM FEW190 26/09 A2973 RMK AO1 SLP044
METAR CYNL 240100Z AUTO 15008KT 9SM CLR 27/10 A2973 RMK AO1 SLP045
METAR CYNL 240000Z AUTO 19003KT 9SM CLR 28/07 A2974 RMK AO1 SLP048
METAR CYNL 232300Z AUTO VRB02KT 9SM FEW210 26/08 A2975 RMK AO1 SLP056
METAR CYNL 232200Z AUTO 11003KT 9SM CLR 27/08 A2974 RMK AO1 SLP055
METAR CYNL 232100Z AUTO 22004KT 9SM CLR 27/09 A2976 RMK AO1 SLP059
METAR CYNL 232000Z AUTO 12003KT 070V170 9SM SCT066 26/09 A2976 RMK AO1 SLP063
METAR CYNL 231900Z AUTO 26006KT 190V340 9SM CLR 26/09 A2975 RMK AO1 SLP059
METAR CYNL 231800Z AUTO 29004KT 230V350 9SM FEW050 26/12 A2975 RMK AO1 SLP060
METAR CYNL 231700Z AUTO 20007KT 160V230 9SM CLR 24/11 A2976 RMK AO1 SLP063
METAR CYNL 231600Z AUTO 23005KT 9SM CLR 24/12 A2976 RMK AO1 SLP062
METAR CYNL 231500Z AUTO 25004KT 9SM CLR 23/14 A2976 RMK AO1 SLP062
METAR CYNL 231400Z AUTO 29005KT 9SM CLR 21/14 A2975 RMK AO1 SLP061
METAR CYNL 231300Z AUTO 27004KT 9SM CLR 19/15 A2975 RMK AO1 SLP061
METAR CYNL 231200Z AUTO 27003KT 9SM CLR 17/16 A2975 RMK AO1 SLP061
METAR CYNL 231100Z AUTO 25004KT 9SM BKN100 16/16 A2974 RMK AO1 SLP061
METAR CYNL 231000Z AUTO 25003KT 9SM BKN098 16/16 A2973 RMK AO1 SLP056
METAR CYNL 230900Z AUTO 24003KT 9SM BKN110 15/15 A2973 RMK AO1 SLP055
METAR CYNL 230800Z AUTO 22002KT 9SM 15/15 A2973 RMK AO1 SLP058
METAR CYNL 230700Z AUTO 22002KT 9SM FEW110 15/15 A2972 RMK AO1 SLP052
METAR CYNL 230600Z AUTO 23003KT 9SM CLR 16/14 A2972 RMK AO1 SLP053
METAR CYNL 230500Z AUTO 18004KT 9SM FEW180 17/14 A2972 RMK AO1 SLP051
METAR CYNL 230400Z AUTO 19003KT 9SM CLR 18/14 A2972 RMK AO1 SLP051
METAR CYNL 230300Z AUTO 17003KT 9SM CLR 18/15 A2973 RMK AO1 SLP057
METAR CYNL 230200Z AUTO 13006KT 9SM CLR 19/15 A2973 RMK AO1 SLP054
METAR CYNL 230100Z AUTO 12009KT 9SM FEW047 21/15 A2973 RMK AO1 SLP055
METAR CYNL 230000Z AUTO 15008KT 9SM CLR 21/15 A2973 RMK AO1 WSHFT (23)49 SLP056
SPECI CYNL 222349Z AUTO 16011KT 9SM CLR 21/15 A2973 RMK AO1 WSHFT (23)49 SLP059
METAR CYNL 222300Z AUTO 12008KT 9SM SCT052 21/15 A2974 RMK AO1 SLP062
METAR CYNL 222200Z AUTO 11009KT 9SM SCT070 BKN140 22/15 A2976 RMK AO1 SLP068
METAR CYNL 222100Z AUTO 09005KT 9SM FEW017 SCT064 21/16 A2976 RMK AO1 SLP069
METAR CYNL 222000Z AUTO 16007KT 7SM FEW015 SCT210 22/14 A2977 RMK AO1 SLP070
METAR CYNL 221900Z AUTO 16003KT 9SM FEW068 20/14 A2979 RMK AO1 SLP076
SPECI CYNL 221825Z AUTO 21003KT 7SM FEW006 SCT040 20/14 A2979 RMK AO1 SLP076
METAR CYNL 221800Z AUTO 18009KT 9SM BKN042 21/12 A2979 RMK AO1 SLP076
METAR CYNL 221700Z AUTO 17009KT 9SM FEW110 22/11 A2979 RMK AO1 SLP075
METAR CYNL 221600Z AUTO 17005KT 9SM FEW033 SCT066 20/12 A2981 RMK AO1 SLP082
METAR CYNL 221500Z AUTO 19004KT 9SM FEW092 19/13 A2981 RMK AO1 SLP083
METAR CYNL 221400Z AUTO 15003KT 9SM BKN092 17/13 A2982 RMK AO1 SLP086
METAR CYNL 221300Z AUTO VRB02KT 9SM FEW082 SCT100 16/13 A2982 RMK AO1 SLP085
METAR CYNL 221200Z AUTO 10003KT 9SM FEW150 14/13 A2982 RMK AO1 SLP086
METAR CYNL 221100Z AUTO 00000KT 9SM CLR 14/11 A2983 RMK AO1 SLP087
METAR CYNL 221000Z AUTO 25003KT 9SM CLR 13/12 A2983 RMK AO1 SLP090
METAR CYNL 220900Z AUTO 17004KT 9SM CLR 16/12 A2984 RMK AO1 SLP089
METAR CYNL 220800Z AUTO 23004KT 190V260 9SM FEW110 16/12 A2984 RMK AO1 SLP091
METAR CYNL 220700Z AUTO 17004KT 9SM BKN110 18/12 A2985 RMK AO1 SLP091
METAR CYNL 220600Z AUTO 00000KT 9SM BKN110 18/13 A2985 RMK AO1 SLP093
METAR CYNL 220500Z AUTO 17003KT 9SM CLR 18/12 A2986 RMK AO1 SLP095
METAR CYNL 220400Z AUTO 00000KT 9SM CLR 19/13 A2986 RMK AO1 SLP096
METAR CYNL 220300Z AUTO 19006KT 9SM SCT074 20/13 A2986 RMK AO1 SLP096
METAR CYNL 220200Z AUTO 14004KT 9SM CLR 22/11 A2986 RMK AO1 SLP093
METAR CYNL 220100Z AUTO 15010G16KT 9SM FEW064 23/11 A2986 RMK AO1 SLP095
METAR CYNL 220000Z AUTO 15006KT 9SM SCT070 26/09 A2986 RMK AO1 SLP095
METAR CYNL 212300Z AUTO 17004KT 9SM FEW210 25/08 A2987 RMK AO1 SLP100
METAR CYNL 212200Z AUTO 24007KT 9SM FEW064 24/09 A2988 RMK AO1 SLP106
METAR CYNL 212100Z AUTO 24009KT 9SM FEW064 25/09 A2989 RMK AO1 SLP107
METAR CYNL 212000Z AUTO 17005KT 9SM FEW210 24/09 A2989 RMK AO1 SLP111
METAR CYNL 211900Z AUTO 22008KT 9SM FEW066 24/10 A2990 RMK AO1 SLP112
METAR CYNL 211800Z AUTO 11004KT 060V160 9SM FEW052 23/10 A2991 RMK AO1 SLP116
METAR CYNL 211700Z AUTO 19008KT 9SM CLR 22/12 A2992 RMK AO1 SLP121
METAR CYNL 211600Z AUTO 18008KT 9SM FEW033 22/13 A2993 RMK AO1 SLP125
METAR CYNL 211500Z AUTO 18007KT 9SM CLR 21/13 A2994 RMK AO1 SLP126
METAR CYNL 211400Z AUTO 20003KT 9SM CLR 19/13 A2995 RMK AO1 SLP129
METAR CYNL 211300Z AUTO 18004KT 9SM FEW084 16/13 A2996 RMK AO1 SLP133
METAR CYNL 211200Z AUTO 18003KT 9SM CLR 15/12 A2996 RMK AO1 SLP136
METAR CYNL 211100Z AUTO 19003KT 9SM CLR 14/12 A2996 RMK AO1 SLP137
METAR CYNL 211000Z AUTO 19004KT 9SM CLR 14/12 A2996 RMK AO1 SLP138
METAR CYNL 210900Z AUTO 22004KT 9SM CLR 14/11 A2997 RMK AO1 SLP140
METAR CYNL 210800Z AUTO 20004KT 9SM FEW080 SCT092 15/12 A2997 RMK AO1 SLP140
METAR CYNL 210700Z AUTO 18003KT 9SM CLR 15/12 A2996 RMK AO1 SLP138
METAR CYNL 210600Z AUTO 18004KT 9SM CLR 16/12 A2997 RMK AO1 SLP138
METAR CYNL 210500Z AUTO 00000KT 9SM CLR 15/10 A2997 RMK AO1 SLP139
METAR CYNL 210400Z AUTO 16003KT 9SM CLR 17/10 A2997 RMK AO1 SLP136
METAR CYNL 210300Z AUTO 19004KT 9SM CLR 20/10 A2997 RMK AO1 SLP132
METAR CYNL 210200Z AUTO 19005KT 9SM FEW100 22/08 A2997 RMK AO1 SLP131
METAR CYNL 210100Z AUTO 20005KT 9SM SCT100 21/09 A2997 RMK AO1 SLP136
METAR CYNL 210000Z AUTO 25006KT 9SM FEW100 21/10 A2998 RMK AO1 SLP143
METAR CYNL 202300Z AUTO 19007KT 9SM FEW100 21/10 A2999 RMK AO1 SLP149
METAR CYNL 202200Z AUTO 25005KT 9SM FEW094 19/10 A3000 RMK AO1 SLP157
METAR CYNL 202100Z AUTO 23011G19KT 9SM FEW076 SCT210 19/10 A3002 RMK AO1 SLP162
METAR CYNL 202000Z AUTO 26005KT 200V310 9SM BKN060 OVC076 20/09 A3000 RMK AO1 SLP156
METAR CYNL 201900Z AUTO 17009KT 9SM SCT086 22/08 A2999 RMK AO1 SLP151
METAR CYNL 201800Z AUTO 17011KT 9SM FEW062 22/07 A2999 RMK AO1 SLP149
METAR CYNL 201700Z AUTO 19009KT 9SM CLR 23/07 A3001 RMK AO1 SLP152
METAR CYNL 201600Z AUTO 17009G15KT 9SM FEW190 22/08 A3002 RMK AO1 SLP155
METAR CYNL 201500Z AUTO 20005KT 9SM CLR 21/08 A3002 RMK AO1 SLP155
METAR CYNL 201400Z AUTO 17004KT 9SM CLR 19/09 A3003 RMK AO1 SLP157
METAR CYNL 201300Z AUTO 18002KT 9SM FEW180 14/09 A3002 RMK AO1 SLP158
METAR CYNL 201200Z AUTO 00000KT 9SM FEW064 11/08 A3002 RMK AO1 SLP159
METAR CYNL 201100Z AUTO 00000KT 9SM FEW190 10/07 A3002 RMK AO1 SLP158
METAR CYNL 201000Z AUTO 00000KT 9SM FEW180 10/07 A3002 RMK AO1 SLP158
METAR CYNL 200900Z AUTO 00000KT 9SM BKN180 10/07 A3002 RMK AO1 SLP159
METAR CYNL 200800Z AUTO 26002KT 9SM FEW190 10/06 A3002 RMK AO1 SLP158
METAR CYNL 200700Z AUTO 00000KT 9SM CLR 11/06 A3002 RMK AO1 SLP157
METAR CYNL 200600Z AUTO 00000KT 9SM FEW180 12/08 A3001 RMK AO1 SLP156
METAR CYNL 200500Z AUTO 00000KT 9SM FEW200 14/08 A3001 RMK AO1 SLP153
METAR CYNL 200400Z AUTO 17002KT 9SM FEW210 17/08 A3000 RMK AO1 SLP149
METAR CYNL 200300Z AUTO 12004KT 9SM CLR 19/05 A2999 RMK AO1 SLP143
METAR CYNL 200200Z AUTO 14006KT 9SM CLR 21/04 A2999 RMK AO1 SLP142
METAR CYNL 200100Z AUTO 12006KT 9SM FEW076 23/04 A2999 RMK AO1 SLP142
METAR CYNL 200000Z AUTO 14007KT 9SM FEW074 23/04 A3000 RMK AO1 SLP148
METAR CYNL 192300Z AUTO 12008KT 9SM SCT076 23/05 A3000 RMK AO1 SLP148
METAR CYNL 192200Z AUTO 16005KT 9SM FEW074 23/04 A3000 RMK AO1 SLP148
METAR CYNL 192100Z AUTO 15008KT 110V180 9SM CLR 23/05 A3000 RMK AO1 SLP149
METAR CYNL 192000Z AUTO 16009KT 9SM FEW068 23/04 A3000 RMK AO1 SLP149
METAR CYNL 191900Z AUTO 03006KT 320V110 9SM FEW074 21/07 A3000 RMK AO1 SLP150
METAR CYNL 191800Z AUTO 00000KT 9SM FEW110 SCT180 21/06 A3001 RMK AO1 SLP153
METAR CYNL 191700Z AUTO 26004KT 9SM FEW150 20/06 A3002 RMK AO1 SLP156
METAR CYNL 191600Z AUTO 23003KT 190V270 9SM FEW160 19/06 A3001 RMK AO1 SLP155
METAR CYNL 191500Z AUTO 15004KT 9SM FEW170 19/09 A3001 RMK AO1 SLP154
METAR CYNL 191400Z AUTO 12005KT 9SM FEW064 18/08 A3000 RMK AO1 SLP152
METAR CYNL 191300Z AUTO 09003KT 9SM FEW062 15/09 A3000 RMK AO1 SLP153
METAR CYNL 191200Z AUTO 06003KT 9SM FEW170 13/08 A2999 RMK AO1 SLP151
METAR CYNL 191100Z AUTO 07005KT 9SM FEW140 SCT170 13/07 A2998 RMK AO1 SLP148
METAR CYNL 191000Z AUTO 06004KT 9SM BKN170 13/07 A2997 RMK AO1 SLP143
METAR CYNL 190900Z AUTO 07004KT 9SM FEW140 14/07 A2997 RMK AO1 SLP140
METAR CYNL 190800Z AUTO 06005KT 9SM FEW130 14/08 A2996 RMK AO1 SLP139
METAR CYNL 190700Z AUTO 04004KT 9SM FEW130 14/08 A2996 RMK AO1 SLP138
METAR CYNL 190600Z AUTO 03004KT 9SM BKN130 15/08 A2995 RMK AO1 SLP136
METAR CYNL 190500Z AUTO 05003KT 9SM BKN130 15/08 A2995 RMK AO1 SLP134
METAR CYNL 190400Z AUTO 02005KT 9SM SCT120 16/08 A2995 RMK AO1 SLP133
METAR CYNL 190300Z AUTO 03003KT 9SM SCT120 17/07 A2994 RMK AO1 SLP130
METAR CYNL 190200Z AUTO 04003KT 9SM FEW130 18/07 A2994 RMK AO1 SLP129
METAR CYNL 190100Z AUTO 10003KT 9SM FEW130 19/06 A2993 RMK AO1 SLP128
METAR CYNL 190000Z AUTO 10005KT 9SM FEW120 19/05 A2993 RMK AO1 SLP127
METAR CYNL 182300Z AUTO 12007KT 9SM FEW120 19/05 A2993 RMK AO1 SLP127
METAR CYNL 182200Z AUTO 07009KT 9SM FEW120 20/05 A2992 RMK AO1 SLP126
METAR CYNL 182100Z AUTO 12007KT 9SM FEW120 19/04 A2993 RMK AO1 SLP128
SPECI CYNL 182014Z AUTO 08011G17KT 9SM FEW140 SCT220 19/06 A2992 RMK AO1 WSHFT (20)14 SLP126
METAR CYNL 182000Z AUTO 09007KT 9SM FEW130 SCT180 19/06 A2992 RMK AO1 SLP127
METAR CYNL 181900Z AUTO 08011KT 9SM FEW140 SCT200 19/06 A2992 RMK AO1 SLP125
METAR CYNL 181800Z AUTO 11010KT 9SM FEW210 19/06 A2992 RMK AO1 SLP125
METAR CYNL 181700Z AUTO 08011KT 9SM CLR 18/06 A2991 RMK AO1 SLP123
METAR CYNL 181600Z AUTO 09010KT 9SM FEW043 18/06 A2991 RMK AO1 SLP121
METAR CYNL 181500Z AUTO 10011KT 9SM FEW038 17/06 A2990 RMK AO1 SLP118
METAR CYNL 181400Z AUTO 10008KT 9SM FEW042 16/06 A2989 RMK AO1 SLP117
METAR CYNL 181300Z AUTO 10006KT 9SM FEW120 SCT230 15/07 A2989 RMK AO1 SLP115
METAR CYNL 181200Z AUTO 08007KT 9SM SCT110 BKN150 14/06 A2988 RMK AO1 SLP113
METAR CYNL 181100Z AUTO 07006KT 9SM FEW062 SCT076 BKN130 13/07 A2987 RMK AO1 SLP110
METAR CYNL 181000Z AUTO 07007KT 9SM BKN068 14/07 A2987 RMK AO1 SLP108
METAR CYNL 180900Z AUTO 08005KT 9SM SCT058 BKN072 14/07 A2987 RMK AO1 SLP107
METAR CYNL 180800Z AUTO 08006KT 9SM BKN062 BKN140 14/07 A2986 RMK AO1 SLP106
METAR CYNL 180700Z AUTO 07008KT 9SM BKN140 14/06 A2985 RMK AO1 SLP103
METAR CYNL 180600Z AUTO 06005KT 9SM SCT076 14/06 A2986 RMK AO1 SLP103
METAR CYNL 180500Z AUTO 08005KT 9SM FEW070 15/06 A2986 RMK AO1 SLP105
METAR CYNL 180400Z AUTO 06005KT 9SM CLR 15/06 A2985 RMK AO1 SLP102
METAR CYNL 180300Z AUTO 07005KT 9SM CLR 16/07 A2985 RMK AO1 SLP099
METAR CYNL 180200Z AUTO 08004KT 9SM SCT064 17/07 A2984 RMK AO1 SLP096
METAR CYNL 180100Z AUTO 09005KT 9SM CLR 18/07 A2984 RMK AO1 SLP096
METAR CYNL 180000Z AUTO 09005KT 9SM BKN066 18/07 A2983 RMK AO1 SLP097
METAR CYNL 172300Z AUTO 09007KT 9SM FEW076 18/07 A2984 RMK AO1 SLP100
METAR CYNL 172200Z AUTO 12010KT 9SM FEW068 18/08 A2984 RMK AO1 SLP105
METAR CYNL 172100Z AUTO 10010KT 9SM FEW068 18/08 A2984 RMK AO1 SLP105
SPECI CYNL 172005Z AUTO 13012KT 9SM FEW042 19/08 A2984 RMK AO1 WSHFT (20)05 SLP105
METAR CYNL 172000Z AUTO 12010G16KT 9SM 19/08 A2984 RMK AO1 SLP105
SPECI CYNL 171923Z AUTO 08011G16KT 9SM CLR 19/08 A2984 RMK AO1 WSHFT (19)23 SLP104
METAR CYNL 171900Z AUTO 09009G16KT 9SM FEW041 18/08 A2985 RMK AO1 SLP106
SPECI CYNL 171833Z AUTO 08012KT 9SM FEW038 19/08 A2985 RMK AO1 WSHFT (18)33 SLP105
SPECI CYNL 171823Z AUTO 13011KT 9SM FEW037 18/08 A2985 RMK AO1 WSHFT (18)23 SLP105
METAR CYNL 171800Z AUTO 09010G15KT 9SM FEW037 18/08 A2985 RMK AO1 SLP107
SPECI CYNL 171734Z AUTO 12010G17KT 9SM FEW036 18/09 A2985 RMK AO1 WSHFT (17)34 SLP106
SPECI CYNL 171728Z AUTO 08011G17KT 9SM FEW036 18/08 A2985 RMK AO1 WSHFT (17)28 SLP106
SPECI CYNL 171715Z AUTO 12011G18KT 9SM FEW036 18/08 A2986 RMK AO1 WSHFT (17)15 SLP108
METAR CYNL 171700Z AUTO 10013KT 9SM FEW036 18/08 A2986 RMK AO1 SLP109
METAR CYNL 171600Z AUTO 08009KT 9SM CLR 17/09 A2985 RMK AO1 SLP104
METAR CYNL 171500Z AUTO 11008KT 9SM CLR 17/10 A2986 RMK AO1 SLP108
METAR CYNL 171400Z AUTO 08008KT 9SM CLR 15/10 A2987 RMK AO1 SLP110
METAR CYNL 171300Z AUTO 08007KT 9SM CLR 13/10 A2987 RMK AO1 SLP112
METAR CYNL 171200Z AUTO 04002KT 9SM CLR 11/10 A2986 RMK AO1 SLP112
SPECI CYNL 171125Z AUTO 00000KT 9SM CLR 08/08 A2986 RMK AO1 SLP114
SPECI CYNL 171124Z AUTO 00000KT 2 1/2SM CLR 08/08 A2986 RMK AO1 SLP115
SPECI CYNL 171123Z AUTO 00000KT 1 1/4SM CLR 08/08 A2986 RMK AO1 SLP115
SPECI CYNL 171122Z AUTO 00000KT 3/4SM CLR 07/07 A2986 RMK AO1 SLP115
SPECI CYNL 171117Z AUTO 00000KT 1/2SM CLR 07/07 A2986 RMK AO1 SLP114
SPECI CYNL 171116Z AUTO 00000KT 1 1/2SM CLR 07/07 A2986 RMK AO1 SLP114
SPECI CYNL 171115Z AUTO 00000KT 2SM CLR 07/07 A2986 RMK AO1 SLP114
SPECI CYNL 171113Z AUTO 00000KT 9SM CLR 07/07 A2986 RMK AO1 SLP114
SPECI CYNL 171112Z AUTO 00000KT 2 1/2SM CLR 07/07 A2986 RMK AO1 SLP114
SPECI CYNL 171111Z AUTO 00000KT 3/4SM CLR 07/07 A2986 RMK AO1 SLP114
SPECI CYNL 171106Z AUTO 00000KT 3/8SM CLR 07/07 A2986 RMK AO1 SLP114
SPECI CYNL 171105Z AUTO 00000KT 1 1/2SM CLR 07/07 A2986 RMK AO1 SLP114
SPECI CYNL 171101Z AUTO 00000KT 8SM CLR 07/07 A2986 RMK AO1 SLP115
METAR CYNL 171100Z AUTO 00000KT 1 3/4SM CLR 07/07 A2986 RMK AO1 SLP115
SPECI CYNL 171059Z AUTO 00000KT 3/4SM CLR 07/07 A2986 RMK AO1 SLP115
SPECI CYNL 171056Z AUTO 00000KT 1/2SM CLR 07/07 A2986 RMK AO1 SLP114
SPECI CYNL 171055Z AUTO 00000KT 1 1/2SM CLR 07/07 A2986 RMK AO1 SLP114
SPECI CYNL 171049Z AUTO 00000KT 4SM CLR 07/07 A2986 RMK AO1 SLP114
SPECI CYNL 171048Z AUTO 00000KT 1SM CLR 07/07 A2986 RMK AO1 SLP114
SPECI CYNL 171045Z AUTO 00000KT 1/2SM CLR 07/07 A2986 RMK AO1 SLP114
SPECI CYNL 171044Z AUTO 00000KT 3/4SM CLR 07/07 A2986 RMK AO1 SLP114
SPECI CYNL 171042Z AUTO 00000KT 5/8SM CLR 07/07 A2986 RMK AO1 SLP114
SPECI CYNL 171041Z AUTO 00000KT 1 1/4SM CLR 07/07 A2986 RMK AO1 SLP114
SPECI CYNL 171033Z AUTO 00000KT 9SM CLR 07/07 A2986 RMK AO1 SLP115
SPECI CYNL 171032Z AUTO 00000KT 2 1/2SM CLR 07/07 A2986 RMK AO1 SLP115
SPECI CYNL 171031Z AUTO 00000KT 1 1/2SM CLR 07/07 A2986 RMK AO1 SLP115
SPECI CYNL 171030Z AUTO 00000KT 1SM CLR 07/07 A2986 RMK AO1 SLP115
SPECI CYNL 171029Z AUTO 00000KT 1/4SM CLR 07/07 A2986 RMK AO1 SLP115
SPECI CYNL 171027Z AUTO 00000KT 1/8SM CLR 07/07 A2986 RMK AO1 SLP115
SPECI CYNL 171025Z AUTO 00000KT 5/8SM CLR 07/07 A2986 RMK AO1 SLP115
SPECI CYNL 171024Z AUTO 00000KT 1 1/2SM CLR 07/07 A2986 RMK AO1 SLP115
SPECI CYNL 171023Z AUTO 00000KT 3SM CLR 07/07 A2986 RMK AO1 SLP115
SPECI CYNL 171022Z AUTO 00000KT 1 1/4SM CLR 07/07 A2986 RMK AO1 SLP115
SPECI CYNL 171021Z AUTO 00000KT 3/4SM CLR 07/07 A2986 RMK AO1 SLP115
SPECI CYNL 171019Z AUTO 00000KT 3/8SM CLR 07/07 A2986 RMK AO1 SLP115
METAR CYNL 171000Z AUTO 00000KT 1/8SM CLR 08/08 A2986 RMK AO1 SLP113
SPECI CYNL 170958Z AUTO 25002KT 3/8SM CLR 08/08 A2986 RMK AO1 SLP112
SPECI CYNL 170953Z AUTO 25003KT 2 1/2SM CLR 08/08 A2985 RMK AO1 SLP112
SPECI CYNL 170952Z AUTO 25003KT 1 3/4SM CLR 08/07 A2985 RMK AO1 SLP112
SPECI CYNL 170935Z AUTO 00000KT 3/8SM CLR 07/07 A2985 RMK AO1 SLP110
SPECI CYNL 170934Z AUTO 00000KT 3/4SM CLR 07/07 A2985 RMK AO1 SLP110
SPECI CYNL 170932Z AUTO 00000KT 2 1/2SM CLR 08/07 A2985 RMK AO1 SLP109
METAR CYNL 170900Z AUTO 00000KT 9SM CLR 07/07 A2984 RMK AO1 SLP107
SPECI CYNL 170850Z AUTO 00000KT 9SM CLR 08/08 A2984 RMK AO1 SLP108
SPECI CYNL 170849Z AUTO 00000KT 2 1/2SM CLR 08/08 A2984 RMK AO1 SLP108
SPECI CYNL 170848Z AUTO 00000KT 1 1/2SM CLR 08/08 A2984 RMK AO1 SLP108
SPECI CYNL 170847Z AUTO 00000KT 3/4SM CLR 08/08 A2984 RMK AO1 SLP108
SPECI CYNL 170844Z AUTO 28002KT 1/2SM CLR 08/08 A2985 RMK AO1 SLP109
SPECI CYNL 170842Z AUTO 28003KT 1 3/4SM CLR 08/08 A2985 RMK AO1 SLP109
SPECI CYNL 170808Z AUTO 00000KT 3SM CLR 09/09 A2985 RMK AO1 SLP107
SPECI CYNL 170806Z AUTO 00000KT 1SM CLR 09/09 A2985 RMK AO1 SLP107
SPECI CYNL 170805Z AUTO 00000KT 3/4SM CLR 09/09 A2985 RMK AO1 SLP107
SPECI CYNL 170803Z AUTO 00000KT 1 1/4SM CLR 09/09 A2985 RMK AO1 SLP107
METAR CYNL 170800Z AUTO 00000KT 3SM CLR 09/09 A2984 RMK AO1 SLP107
SPECI CYNL 170754Z AUTO 26002KT 4SM CLR 09/09 A2984 RMK AO1 SLP108
SPECI CYNL 170752Z AUTO 25003KT 2SM CLR 09/09 A2984 RMK AO1 SLP108
SPECI CYNL 170751Z AUTO 24003KT 1 3/4SM CLR 09/09 A2984 RMK AO1 SLP108
SPECI CYNL 170749Z AUTO 24003KT 2 1/2SM CLR 09/09 A2984 RMK AO1 SLP108
METAR CYNL 170700Z AUTO 00000KT 9SM CLR 10/09 A2984 RMK AO1 SLP105
METAR CYNL 170600Z AUTO 34002KT 9SM CLR 11/10 A2984 RMK AO1 SLP104
METAR CYNL 170500Z AUTO 34004KT 9SM CLR 13/10 A2984 RMK AO1 SLP102
METAR CYNL 170400Z AUTO 30003KT 9SM FEW026 OVC052 14/10 A2983 RMK AO1 SLP097
METAR CYNL 170300Z AUTO 28003KT 9SM OVC047 14/10 A2982 RMK AO1 SLP094
METAR CYNL 170200Z AUTO 29005KT 9SM OVC042 15/10 A2981 RMK AO1 SLP091
METAR CYNL 170100Z AUTO 32006KT 9SM OVC037 15/10 A2980 RMK AO1 SLP088
METAR CYNL 170000Z AUTO 34006KT 9SM OVC031 15/10 A2979 RMK AO1 SLP086
SPECI CYNL 162350Z AUTO 34010KT 9SM OVC030 15/09 A2979 RMK AO1 SLP087
SPECI CYNL 162314Z AUTO 30009KT 9SM BKN025 OVC030 15/10 A2978 RMK AO1 SLP084
SPECI CYNL 162307Z AUTO 32007KT 9SM BKN023 OVC029 15/10 A2978 RMK AO1 SLP084
METAR CYNL 162300Z AUTO 30005KT 9SM OVC027 15/10 A2978 RMK AO1 SLP083
METAR CYNL 162200Z AUTO 30010G15KT 9SM OVC028 16/10 A2977 RMK AO1 SLP077
SPECI CYNL 162128Z AUTO 31009KT 9SM OVC025 16/10 A2976 RMK AO1 SLP076
SPECI CYNL 162107Z AUTO 31009KT 9SM BKN024 OVC030 16/10 A2976 RMK AO1 SLP075
METAR CYNL 162100Z AUTO 31008KT 9SM OVC027 16/10 A2976 RMK AO1 SLP074
SPECI CYNL 162037Z AUTO 32008KT 9SM OVC025 15/10 A2975 RMK AO1 SLP073
METAR CYNL 162000Z AUTO 30009G17KT 9SM OVC021 15/10 A2975 RMK AO1 SLP073
SPECI CYNL 161943Z AUTO 31009G15KT 9SM BKN023 OVC030 16/10 A2974 RMK AO1 SLP070
SPECI CYNL 161931Z AUTO 31011KT 9SM SCT018 OVC025 16/10 A2974 RMK AO1 SLP069
SPECI CYNL 161929Z AUTO 30010KT 9SM SCT018 BKN024 OVC029 16/10 A2974 RMK AO1 SLP069
SPECI CYNL 161928Z AUTO 31010KT 9SM SCT018 OVC027 16/10 A2974 RMK AO1 SLP069
SPECI CYNL 161906Z AUTO 30011KT 9SM BKN020 BKN150 16/11 A2973 RMK AO1 SLP068
SPECI CYNL 161903Z AUTO 31009KT 9SM SCT020 BKN028 16/11 A2974 RMK AO1 SLP067
METAR CYNL 161900Z AUTO 31010G15KT 9SM SCT021 BKN034 16/10 A2974 RMK AO1 SLP067
SPECI CYNL 161858Z AUTO 30009G15KT 9SM SCT021 BKN034 16/10 A2974 RMK AO1 SLP067
SPECI CYNL 161834Z AUTO 32007G17KT 9SM FEW018 BKN023 BKN030 16/10 A2973 RMK AO1 SLP065
SPECI CYNL 161822Z AUTO 33010G19KT 9SM SCT018 BKN034 BKN210 16/10 A2973 RMK AO1 SLP063
SPECI CYNL 161817Z AUTO 31007KT 9SM SCT018 BKN025 BKN035 16/10 A2972 RMK AO1 SLP063
METAR CYNL 161800Z AUTO 33010G16KT 9SM BKN018 OVC022 15/10 A2972 RMK AO1 SLP062
SPECI CYNL 161733Z AUTO 31009G17KT 9SM BKN020 BKN032 15/10 A2971 RMK AO1 SLP059
SPECI CYNL 161727Z AUTO 30011G17KT 9SM SCT019 BKN027 BKN032 16/11 A2971 RMK AO1 SLP058
SPECI CYNL 161725Z AUTO 30011G17KT 9SM BKN018 BKN030 16/11 A2971 RMK AO1 SLP057
SPECI CYNL 161724Z AUTO 31011G17KT 9SM SCT018 BKN030 16/11 A2971 RMK AO1 SLP057
SPECI CYNL 161716Z AUTO 32006G17KT 9SM SCT018 BKN024 BKN028 16/11 A2971 RMK AO1 SLP058
SPECI CYNL 161708Z AUTO 32008G17KT 9SM SCT020 BKN027 OVC034 15/11 A2971 RMK AO1 SLP058
SPECI CYNL 161706Z AUTO 31007G17KT 9SM FEW017 BKN021 BKN028 15/11 A2971 RMK AO1 SLP058
METAR CYNL 161700Z AUTO 31010G17KT 9SM SCT017 BKN027 OVC034 15/11 A2970 RMK AO1 SLP056
SPECI CYNL 161647Z AUTO 34010G19KT 9SM SCT017 OVC027 15/10 A2971 RMK AO1 PRESRR SLP058
SPECI CYNL 161633Z AUTO 30010KT 9SM BKN017 OVC030 15/11 A2970 RMK AO1 PRESRR SLP057
SPECI CYNL 161615Z AUTO 33008KT 9SM FEW016 BKN030 15/11 A2970 RMK AO1 PRESRR SLP054
SPECI CYNL 161614Z AUTO 33008KT 9SM FEW016 BKN029 15/11 A2970 RMK AO1 PRESRR SLP054
SPECI CYNL 161609Z AUTO 34010G19KT 9SM SCT016 OVC030 15/10 A2970 RMK AO1 PRESRR SLP053
SPECI CYNL 161604Z AUTO 33011G19KT 9SM FEW012 SCT016 BKN023 15/11 A2969 RMK AO1 PRESRR SLP053
METAR CYNL 161600Z AUTO 33012G19KT 9SM FEW012 SCT023 BKN031 15/10 A2969 RMK AO1 PRESRR SLP053
SPECI CYNL 161556Z AUTO 34010G20KT 9SM FEW013 SCT024 BKN031 14/10 A2969 RMK AO1 PRESRR SLP053
SPECI CYNL 161540Z AUTO 32009G15KT 9SM SCT014 BKN017 BKN022 14/11 A2969 RMK AO1 PRESRR SLP051
SPECI CYNL 161538Z AUTO 33011KT 9SM BKN014 BKN023 OVC032 14/11 A2968 RMK AO1 PRESRR SLP051
METAR CYNL 161500Z AUTO 32007KT 9SM SCT013 OVC018 13/11 A2967 RMK AO1 PRESRR SLP046
SPECI CYNL 161458Z AUTO 33009KT 9SM SCT013 OVC018 13/11 A2967 RMK AO1 PRESRR SLP045
SPECI CYNL 161437Z AUTO 32009KT 9SM BKN014 OVC018 13/11 A2966 RMK AO1 PRESRR SLP043
SPECI CYNL 161436Z AUTO 32010KT 9SM SCT014 OVC018 13/11 A2966 RMK AO1 PRESRR SLP043
SPECI CYNL 161435Z AUTO 32010KT 9SM BKN013 OVC018 13/11 A2966 RMK AO1 PRESRR SLP043
SPECI CYNL 161434Z AUTO 32009KT 9SM SCT014 OVC018 13/11 A2966 RMK AO1 PRESRR SLP043
SPECI CYNL 161433Z AUTO 33011KT 9SM BKN014 OVC019 13/11 A2966 RMK AO1 PRESRR SLP043
SPECI CYNL 161406Z AUTO 34010G19KT 9SM SCT013 BKN017 13/11 A2965 RMK AO1 PRESRR SLP040
METAR CYNL 161400Z AUTO 33010G23KT 9SM BKN012 OVC018 13/11 A2965 RMK AO1 PRESRR SLP039
SPECI CYNL 161346Z AUTO 33011G18KT 3SM BKN011 BKN014 OVC017 13/11 A2965 RMK AO1 SLP039
SPECI CYNL 161343Z AUTO 33008G18KT 2 1/2SM BKN010 BKN013 OVC017 13/12 A2965 RMK AO1 SLP038
METAR CYNL 161300Z AUTO 32011G16KT 9SM SCT010 BKN013 OVC015 13/11 A2963 RMK AO1 SLP031
SPECI CYNL 161231Z AUTO 32012G19KT 9SM SCT009 BKN014 OVC018 13/11 A2962 RMK AO1 SLP027
SPECI CYNL 161202Z AUTO 32009G17KT 8SM BKN009 BKN011 OVC014 12/12 A2961 RMK AO1 SLP024
METAR CYNL 161200Z AUTO 32008G18KT 9SM FEW008 BKN011 OVC014 12/12 A2961 RMK AO1 SLP024
SPECI CYNL 161156Z AUTO 33009G18KT 9SM FEW008 OVC011 12/12 A2961 RMK AO1 SLP024
SPECI CYNL 161155Z AUTO 32010G18KT 9SM BKN009 OVC013 12/12 A2961 RMK AO1 SLP024
SPECI CYNL 161153Z AUTO 32008G18KT 9SM FEW008 BKN010 BKN012 12/12 A2961 RMK AO1 SLP024
SPECI CYNL 161150Z AUTO 33008G16KT 9SM BKN009 BKN016 OVC019 12/12 A2961 RMK AO1 SLP023
SPECI CYNL 161147Z AUTO 33010G16KT 8SM SCT009 BKN012 OVC018 12/12 A2961 RMK AO1 SLP023
SPECI CYNL 161146Z AUTO 33010G16KT 7SM BKN009 OVC018 12/12 A2961 RMK AO1 SLP023
SPECI CYNL 161121Z AUTO 32009KT 4SM SCT009 BKN013 BKN018 12/12 A2960 RMK AO1 SLP020
SPECI CYNL 161120Z AUTO 33009G21KT 5SM FEW008 SCT010 BKN018 12/12 A2960 RMK AO1 SLP020
SPECI CYNL 161101Z AUTO 32009G16KT 3SM SCT008 BKN010 BKN014 12/12 A2959 RMK AO1 SLP019
METAR CYNL 161100Z AUTO 33010G16KT 2 1/2SM BKN008 OVC016 12/12 A2959 RMK AO1 SLP019
SPECI CYNL 161058Z AUTO 33009G16KT 2 1/2SM SCT007 BKN010 BKN012 12/12 A2959 RMK AO1 SLP018
SPECI CYNL 161057Z AUTO 33010G16KT 3SM SCT007 BKN011 BKN015 12/12 A2959 RMK AO1 SLP018
SPECI CYNL 161054Z AUTO 33010G16KT 2 1/2SM SCT008 BKN011 OVC015 12/12 A2959 RMK AO1 SLP018
SPECI CYNL 161053Z AUTO 32010G16KT 2SM BKN008 BKN011 OVC015 12/12 A2959 RMK AO1 SLP018
SPECI CYNL 161052Z AUTO 33010G16KT 2SM SCT008 BKN011 OVC015 12/12 A2959 RMK AO1 SLP017
SPECI CYNL 161050Z AUTO 33007G16KT 1 3/4SM SCT008 OVC012 12/12 A2959 RMK AO1 SLP017
SPECI CYNL 161049Z AUTO 32008G16KT 2SM BKN008 OVC011 12/12 A2959 RMK AO1 SLP017
SPECI CYNL 161046Z AUTO 33009G16KT 3SM BKN008 OVC011 12/12 A2959 RMK AO1 SLP016
SPECI CYNL 161045Z AUTO 33011G16KT 3SM SCT008 BKN011 OVC015 12/12 A2959 RMK AO1 SLP016
SPECI CYNL 161044Z AUTO 33011KT 2 1/2SM SCT008 BKN011 OVC015 12/12 A2958 RMK AO1 SLP016
SPECI CYNL 161042Z AUTO 33011G16KT 3SM SCT008 BKN011 OVC015 12/12 A2958 RMK AO1 SLP016
SPECI CYNL 161037Z AUTO 33010G16KT 2 1/2SM FEW008 BKN011 OVC015 12/12 A2958 RMK AO1 SLP015
SPECI CYNL 161034Z AUTO 32008G16KT 3SM FEW008 BKN011 OVC015 12/12 A2958 RMK AO1 SLP015
SPECI CYNL 161032Z AUTO 33011G22KT 2 1/2SM FEW008 BKN011 OVC015 12/12 A2958 RMK AO1 SLP015
SPECI CYNL 161008Z AUTO 32011G17KT 9SM SCT009 OVC012 12/11 A2958 RMK AO1 SLP013
METAR CYNL 161000Z AUTO 32009G23KT 8SM SCT008 BKN009 OVC012 12/12 A2957 RMK AO1 SLP013
SPECI CYNL 160953Z AUTO 32011G23KT 7SM BKN008 OVC012 12/12 A2957 RMK AO1 SLP012
SPECI CYNL 160944Z AUTO 32009G16KT 7SM SCT008 BKN010 OVC018 12/12 A2957 RMK AO1 SLP011
SPECI CYNL 160943Z AUTO 32007G16KT 8SM BKN009 OVC018 12/12 A2957 RMK AO1 SLP011
SPECI CYNL 160940Z AUTO 32010G16KT 4SM FEW008 SCT010 BKN012 12/12 A2957 RMK AO1 SLP011
SPECI CYNL 160939Z AUTO 32011KT 3SM BKN009 OVC019 12/12 A2957 RMK AO1 SLP011
SPECI CYNL 160938Z AUTO 32010G16KT 3SM SCT009 BKN012 OVC019 12/12 A2957 RMK AO1 SLP011
SPECI CYNL 160937Z AUTO 32010G17KT 3SM BKN009 OVC019 12/12 A2957 RMK AO1 SLP011
SPECI CYNL 160935Z AUTO 32009G17KT 2 1/2SM BKN009 OVC018 12/12 A2957 RMK AO1 SLP011
SPECI CYNL 160909Z AUTO 32012G19KT 3SM SCT006 BKN010 BKN015 12/12 A2956 RMK AO1 SLP009
SPECI CYNL 160908Z AUTO 32012G19KT 1 3/4SM SCT006 BKN010 BKN014 12/12 A2956 RMK AO1 SLP009
SPECI CYNL 160905Z AUTO 32012G17KT 1 1/4SM SCT007 BKN010 BKN014 12/12 A2956 RMK AO1 SLP009
SPECI CYNL 160904Z AUTO 32010G17KT 1 1/2SM SCT007 BKN010 BKN014 12/12 A2956 RMK AO1 SLP009
SPECI CYNL 160902Z AUTO 32010G17KT 2 1/2SM FEW007 BKN010 BKN014 12/12 A2956 RMK AO1 SLP009
SPECI CYNL 160901Z AUTO 32009G17KT 1 3/4SM SCT007 BKN010 BKN014 12/12 A2956 RMK AO1 SLP009
METAR CYNL 160900Z AUTO 32008G17KT 1 3/4SM FEW007 BKN009 BKN014 12/12 A2956 RMK AO1 SLP009
SPECI CYNL 160859Z AUTO 32008G17KT 2SM FEW007 BKN009 BKN014 12/12 A2956 RMK AO1 SLP009
SPECI CYNL 160851Z AUTO 31010G17KT 9SM SCT007 BKN009 BKN013 12/12 A2956 RMK AO1 SLP008
SPECI CYNL 160850Z AUTO 31009G17KT 9SM SCT007 BKN010 BKN013 12/12 A2956 RMK AO1 SLP008
SPECI CYNL 160847Z AUTO 31010G19KT 3SM BKN007 BKN010 OVC013 12/12 A2956 RMK AO1 SLP008
SPECI CYNL 160845Z AUTO 32008G20KT 2SM SCT007 BKN009 OVC013 12/12 A2956 RMK AO1 SLP008
SPECI CYNL 160843Z AUTO 32008G20KT 1 1/2SM FEW007 BKN009 OVC013 12/12 A2956 RMK AO1 SLP007
SPECI CYNL 160842Z AUTO 32009G20KT 1 1/2SM FEW007 SCT009 BKN010 12/12 A2956 RMK AO1 SLP007
SPECI CYNL 160840Z AUTO 32009G20KT 2 1/2SM BKN008 BKN010 OVC013 12/12 A2956 RMK AO1 SLP007
SPECI CYNL 160830Z AUTO 31010G19KT 3SM BKN007 OVC013 12/12 A2955 RMK AO1 SLP007
SPECI CYNL 160827Z AUTO 32012G19KT 2SM BKN007 OVC013 12/12 A2955 RMK AO1 SLP006
SPECI CYNL 160823Z AUTO 31011G18KT 1 1/2SM BKN007 OVC013 12/12 A2956 RMK AO1 SLP007
SPECI CYNL 160821Z AUTO 31010G17KT 2 1/2SM BKN007 OVC013 12/12 A2955 RMK AO1 SLP006
SPECI CYNL 160819Z AUTO 31011G17KT 4SM BKN007 BKN009 OVC013 12/12 A2955 RMK AO1 SLP006
SPECI CYNL 160813Z AUTO 31010G21KT 2 1/2SM BKN007 BKN009 OVC013 12/12 A2956 RMK AO1 SLP007
METAR CYNL 160800Z AUTO 31013G18KT 3SM BKN007 BKN013 OVC016 13/12 A2955 RMK AO1 SLP006
SPECI CYNL 160756Z AUTO 30011G17KT 3SM BKN007 BKN013 OVC016 13/12 A2955 RMK AO1 SLP004
SPECI CYNL 160753Z AUTO 31010G16KT 2 1/2SM BKN008 BKN013 OVC016 13/12 A2955 RMK AO1 SLP004
SPECI CYNL 160751Z AUTO 31008G16KT 3SM BKN008 BKN013 OVC016 13/12 A2955 RMK AO1 SLP004
SPECI CYNL 160748Z AUTO 31009KT 5SM SCT007 BKN010 OVC014 13/12 A2955 RMK AO1 SLP003
SPECI CYNL 160747Z AUTO 31007G16KT 6SM BKN008 OVC014 13/12 A2955 RMK AO1 SLP003
SPECI CYNL 160741Z AUTO 31009G16KT 3SM SCT009 OVC014 13/12 A2955 RMK AO1 SLP003
SPECI CYNL 160740Z AUTO 31010G17KT 2SM SCT009 OVC013 13/12 A2955 RMK AO1 SLP003
SPECI CYNL 160738Z AUTO 31010G17KT 1 3/4SM SCT009 BKN013 OVC016 13/12 A2955 RMK AO1 SLP003
SPECI CYNL 160737Z AUTO 31010G17KT 2SM SCT009 BKN013 OVC016 13/12 A2955 RMK AO1 SLP003
SPECI CYNL 160734Z AUTO 32009G17KT 3SM SCT009 OVC013 13/12 A2955 RMK AO1 SLP003
SPECI CYNL 160733Z AUTO 31009G17KT 2 1/2SM SCT009 OVC013 13/12 A2955 RMK AO1 SLP002
SPECI CYNL 160731Z AUTO 31012G17KT 1 3/4SM BKN009 OVC012 13/12 A2955 RMK AO1 SLP002
SPECI CYNL 160730Z AUTO 31012KT 2SM BKN009 OVC012 13/12 A2955 RMK AO1 SLP002
SPECI CYNL 160726Z AUTO 31011G17KT 5SM BKN009 BKN012 OVC015 13/12 A2955 RMK AO1 SLP002
SPECI CYNL 160715Z AUTO 32010G18KT 9SM SCT009 OVC012 13/11 A2954 RMK AO1 SLP001
METAR CYNL 160700Z AUTO 31010G16KT 9SM BKN010 OVC015 13/12 A2954 RMK AO1 SLP000
SPECI CYNL 160643Z AUTO 31010G17KT 9SM SCT009 BKN011 OVC015 13/12 A2954 RMK AO1 SLP000
SPECI CYNL 160642Z AUTO 31009G17KT 9SM BKN009 OVC015 13/12 A2954 RMK AO1 SLP000
SPECI CYNL 160631Z AUTO 31010G18KT 9SM SCT008 OVC011 13/12 A2954 RMK AO1 SLP000
SPECI CYNL 160624Z AUTO 32009G18KT 6SM BKN008 OVC010 13/12 A2954 RMK AO1 SLP000
SPECI CYNL 160607Z AUTO 32011G18KT 4SM SCT008 OVC011 13/12 A2954 RMK AO1 SLP001
METAR CYNL 160600Z AUTO 32008G16KT 5SM BKN008 OVC010 13/12 A2954 RMK AO1 SLP001
SPECI CYNL 160557Z AUTO 32010G16KT 6SM SCT008 BKN011 OVC015 13/12 A2954 RMK AO1 SLP002
SPECI CYNL 160554Z AUTO 32011KT 6SM BKN008 OVC015 13/12 A2954 RMK AO1 SLP001
SPECI CYNL 160538Z AUTO 32010G17KT 9SM FEW007 BKN011 BKN015 13/12 A2953 RMK AO1 SLP000
SPECI CYNL 160529Z AUTO 32009G16KT 9SM SCT007 BKN015 OVC024 13/12 A2953 RMK AO1 SLP000
SPECI CYNL 160525Z AUTO 33011G16KT 9SM SCT007 BKN013 OVC024 13/12 A2953 RMK AO1 SLP000
SPECI CYNL 160517Z AUTO 33008KT 3SM BKN007 BKN012 OVC015 13/12 A2953 RMK AO1 SLP000
SPECI CYNL 160515Z AUTO 32008KT 2 1/2SM BKN007 BKN012 OVC015 13/12 A2953 RMK AO1 SLP000
SPECI CYNL 160511Z AUTO 32007KT 3SM BKN007 BKN011 OVC015 13/12 A2953 RMK AO1 SLP000
SPECI CYNL 160508Z AUTO 32008G17KT 2SM BKN008 BKN011 OVC015 13/12 A2953 RMK AO1 SLP999
SPECI CYNL 160507Z AUTO 33009G17KT 2 1/2SM SCT008 BKN011 OVC015 13/12 A2953 RMK AO1 SLP999
METAR CYNL 160500Z AUTO 31009G19KT 9SM SCT008 BKN012 OVC015 13/12 A2953 RMK AO1 SLP999
SPECI CYNL 160454Z AUTO 32012G19KT 9SM SCT008 BKN011 BKN014 13/12 A2953 RMK AO1 SLP999
SPECI CYNL 160451Z AUTO 32013G19KT 9SM BKN008 BKN014 OVC022 13/12 A2953 RMK AO1 SLP000
SPECI CYNL 160450Z AUTO 32010G18KT 9SM SCT007 BKN011 OVC023 13/12 A2953 RMK AO1 SLP000
SPECI CYNL 160447Z AUTO 32010G18KT 4SM BKN007 BKN012 OVC022 13/12 A2953 RMK AO1 SLP999
SPECI CYNL 160444Z AUTO 31010G18KT 2 1/2SM SCT007 BKN009 BKN012 13/12 A2953 RMK AO1 SLP999
SPECI CYNL 160439Z AUTO 31010G18KT 3SM BKN008 BKN011 OVC023 13/12 A2953 RMK AO1 SLP999
SPECI CYNL 160438Z AUTO 31011G18KT 2 1/2SM BKN008 BKN011 OVC020 13/12 A2953 RMK AO1 SLP999
SPECI CYNL 160419Z AUTO 31010KT 5SM SCT008 BKN014 BKN018 13/12 A2953 RMK AO1 SLP000
SPECI CYNL 160417Z AUTO 31007KT 4SM SCT009 BKN018 OVC031 13/12 A2953 RMK AO1 SLP000
SPECI CYNL 160415Z AUTO 31008G16KT 4SM SCT009 BKN014 BKN020 13/12 A2953 RMK AO1 SLP000
SPECI CYNL 160406Z AUTO 32010G16KT 5SM FEW009 SCT014 BKN024 13/12 A2953 RMK AO1 SLP999
SPECI CYNL 160401Z AUTO 32007G16KT 5SM FEW009 SCT014 BKN025 13/12 A2953 RMK AO1 SLP999
METAR CYNL 160400Z AUTO 32007G16KT 6SM FEW010 SCT015 BKN028 13/12 A2953 RMK AO1 SLP999
SPECI CYNL 160356Z AUTO 32008G16KT 9SM SCT012 BKN025 OVC031 13/12 A2953 RMK AO1 SLP999
SPECI CYNL 160354Z AUTO 32011KT 3SM FEW010 BKN015 BKN024 13/12 A2953 RMK AO1 SLP999
SPECI CYNL 160352Z AUTO 31007G16KT 2 1/2SM FEW010 BKN015 BKN024 13/12 A2953 RMK AO1 SLP999
SPECI CYNL 160349Z AUTO 32006G16KT 2 1/2SM BKN013 OVC027 13/12 A2953 RMK AO1 SLP999
SPECI CYNL 160348Z AUTO 32008G18KT 3SM BKN013 OVC027 13/12 A2953 RMK AO1 SLP999
SPECI CYNL 160344Z AUTO 33009G18KT 4SM SCT013 BKN017 BKN026 13/11 A2953 RMK AO1 SLP998
SPECI CYNL 160342Z AUTO 32011G19KT 4SM FEW012 SCT017 OVC025 13/11 A2953 RMK AO1 SLP998
SPECI CYNL 160333Z AUTO 34013G19KT 3SM FEW012 BKN017 OVC021 13/11 A2952 RMK AO1 SLP998
SPECI CYNL 160331Z AUTO 33010G18KT 2 1/2SM SCT013 OVC018 13/12 A2952 RMK AO1 SLP998
SPECI CYNL 160330Z AUTO 33010G18KT 3SM SCT013 BKN018 OVC021 13/11 A2952 RMK AO1 SLP997
SPECI CYNL 160329Z AUTO 33010G18KT 2SM FEW013 OVC018 13/11 A2952 RMK AO1 SLP997
SPECI CYNL 160325Z AUTO 32012G18KT 1 3/4SM BKN016 OVC020 13/11 A2952 RMK AO1 SLP996
SPECI CYNL 160324Z AUTO 32010G16KT 2SM BKN016 OVC020 14/11 A2952 RMK AO1 SLP996
METAR CYNL 160300Z AUTO 32009G15KT 9SM BKN016 OVC021 14/11 A2952 RMK AO1 SLP993
METAR CYNL 160200Z AUTO 30011G18KT 9SM BKN018 OVC023 14/11 A2950 RMK AO1 SLP989
METAR CYNL 160100Z AUTO 31012G22KT 9SM OVC020 14/10 A2949 RMK AO1 SLP986
SPECI CYNL 160057Z AUTO 30013G22KT 9SM OVC020 14/10 A2949 RMK AO1 SLP986
SPECI CYNL 160001Z AUTO 32008G18KT 15/10 A2948 RMK AO1 SLP981
METAR CYNL 160000Z AUTO 32008G18KT 9SM SCT020 BKN027 OVC036 15/10 A2948 RMK AO1 SLP981
SPECI CYNL 152358Z AUTO 32009G18KT 9SM SCT020 OVC026 15/10 A2948 RMK AO1 SLP981
SPECI CYNL 152357Z AUTO 32010G18KT 9SM BKN024 OVC032 15/10 A2948 RMK AO1 PRESRR SLP981
SPECI CYNL 152356Z AUTO 32010G18KT 9SM FEW020 BKN026 OVC032 15/10 A2948 RMK AO1 PRESRR SLP981
SPECI CYNL 152355Z AUTO 31009G17KT 9SM BKN024 OVC032 15/11 A2948 RMK AO1 PRESRR SLP981
SPECI CYNL 152346Z AUTO 30010KT 9SM SCT022 OVC029 15/11 A2948 RMK AO1 PRESRR SLP980
SPECI CYNL 152339Z AUTO 31006G19KT 9SM FEW020 OVC030 15/11 A2948 RMK AO1 PRESRR SLP979
SPECI CYNL 152331Z AUTO 32010G19KT 9SM FEW022 BKN029 OVC035 15/11 A2947 RMK AO1 PRESRR SLP979
METAR CYNL 152300Z AUTO 33010G19KT 9SM SCT018 BKN034 15/11 A2947 RMK AO1 PRESRR SLP976
SPECI CYNL 152209Z AUTO 33009G19KT 9SM SCT016 BKN036 BKN200 14/11 A2945 RMK AO1 SLP972
METAR CYNL 152200Z AUTO 33010G19KT 9SM BKN017 15/11 A2945 RMK AO1 SLP970
SPECI CYNL 152142Z AUTO 32012G23KT 9SM SCT018 BKN078 15/11 A2944 RMK AO1 PRESRR SLP968
SPECI CYNL 152130Z AUTO 33011G21KT 9SM SCT016 BKN021 15/11 A2944 RMK AO1 PRESRR SLP965
SPECI CYNL 152129Z AUTO 33012G20KT 9SM SCT016 BKN160 15/11 A2944 RMK AO1 PRESRR SLP965
SPECI CYNL 152119Z AUTO 32011G17KT 9SM SCT016 BKN024 16/12 A2943 RMK AO1 PRESRR SLP964
SPECI CYNL 152118Z AUTO 31011G17KT 9SM SCT016 BKN025 16/12 A2943 RMK AO1 PRESRR SLP964
SPECI CYNL 152117Z AUTO 31010G17KT 9SM BKN018 16/12 A2943 RMK AO1 PRESRR SLP963
SPECI CYNL 152113Z AUTO 33009G17KT 9SM SCT016 BKN026 15/12 A2943 RMK AO1 PRESRR SLP963
SPECI CYNL 152101Z AUTO 33008G17KT 6SM FEW015 SCT025 BKN036 14/13 A2943 RMK AO1 PRESRR SLP964
METAR CYNL 152100Z AUTO 32009G17KT 4SM FEW015 BKN024 14/13 A2943 RMK AO1 PRESRR SLP964
SPECI CYNL 152059Z AUTO 31011G17KT 5SM FEW015 BKN024 BKN190 14/12 A2943 RMK AO1 PRESRR SLP964
SPECI CYNL 152052Z AUTO 32011G19KT 9SM SCT017 BKN025 BKN130 14/13 A2943 RMK AO1 SLP963
SPECI CYNL 152051Z AUTO 32011G19KT 3SM VV023 14/13 A2943 RMK AO1 SLP963
SPECI CYNL 152050Z AUTO 33011G19KT 1 3/4SM VV023 14/13 A2943 RMK AO1 SLP963
SPECI CYNL 152049Z AUTO 33011G19KT 1 1/4SM VV022 14/13 A2943 RMK AO1 SLP963
SPECI CYNL 152048Z AUTO 32011G19KT 1 3/4SM SCT019 BKN031 BKN130 14/13 A2943 RMK AO1 SLP963
SPECI CYNL 152047Z AUTO 33012G19KT 2 1/2SM BKN020 BKN180 14/12 A2942 RMK AO1 SLP962
SPECI CYNL 152046Z AUTO 34012G19KT 3SM SCT019 BKN032 BKN180 15/12 A2942 RMK AO1 SLP962
SPECI CYNL 152045Z AUTO 34011G18KT 3SM BKN020 BKN190 15/13 A2942 RMK AO1 SLP962
SPECI CYNL 152044Z AUTO 33012G19KT 3SM SCT017 BKN031 15/12 A2942 RMK AO1 SLP961
SPECI CYNL 152043Z AUTO 33011G20KT 4SM BKN020 15/12 A2942 RMK AO1 SLP961
SPECI CYNL 152037Z AUTO 33010G23KT 9SM SCT021 BKN040 15/12 A2942 RMK AO1 SLP960
SPECI CYNL 152036Z AUTO 33009G23KT 5SM SCT020 BKN028 15/12 A2942 RMK AO1 SLP960
SPECI CYNL 152034Z AUTO 33015G23KT 4SM BKN022 BKN190 15/12 A2942 RMK AO1 SLP960
SPECI CYNL 152033Z AUTO 33014G23KT 8SM SCT019 BKN026 BKN190 15/12 A2942 RMK AO1 SLP959
SPECI CYNL 152031Z AUTO 33015G23KT 5SM BKN020 BKN190 15/12 A2942 RMK AO1 SLP959
SPECI CYNL 152030Z AUTO 33016G23KT 2SM BKN019 BKN190 15/12 A2942 RMK AO1 SLP958
SPECI CYNL 152029Z AUTO 33015G23KT 1 1/2SM BKN019 BKN190 16/12 A2941 RMK AO1 SLP957
SPECI CYNL 152028Z AUTO 32012G20KT 2SM BKN019 BKN190 16/12 A2941 RMK AO1 SLP957
SPECI CYNL 152024Z AUTO 33010G19KT 9SM SCT019 BKN026 16/11 A2941 RMK AO1 SLP956
SPECI CYNL 152019Z AUTO 32008G19KT 9SM BKN021 16/12 A2941 RMK AO1 SLP955
METAR CYNL 152000Z AUTO 31013G21KT 9SM FEW017 SCT047 16/12 A2940 RMK AO1 SLP954
SPECI CYNL 151945Z AUTO 30007KT 9SM SCT015 16/12 A2940 RMK AO1 SLP952
SPECI CYNL 151903Z AUTO 32009G18KT 9SM SCT010 BKN018 15/12 A2940 RMK AO1 SLP953
METAR CYNL 151900Z AUTO 32013KT 9SM FEW008 BKN011 BKN018 15/12 A2940 RMK AO1 SLP953
SPECI CYNL 151859Z AUTO 32013KT 9SM FEW008 BKN011 BKN018 15/12 A2940 RMK AO1 SLP952
SPECI CYNL 151851Z AUTO 31008G15KT 9SM BKN010 BKN022 14/12 A2940 RMK AO1 SLP952
SPECI CYNL 151841Z AUTO 31006G16KT 9SM BKN009 OVC013 14/13 A2939 RMK AO1 SLP951
SPECI CYNL 151839Z AUTO 31008G16KT 9SM SCT008 BKN010 OVC015 14/12 A2939 RMK AO1 SLP951
SPECI CYNL 151825Z AUTO 31008G19KT 9SM BKN009 OVC019 14/12 A2939 RMK AO1 SLP950
SPECI CYNL 151824Z AUTO 32006G19KT 9SM SCT008 BKN010 OVC019 14/12 A2939 RMK AO1 SLP950
SPECI CYNL 151802Z AUTO 33007G16KT 9SM BKN008 BKN013 OVC017 14/13 A2938 RMK AO1 SLP948
METAR CYNL 151800Z AUTO 33009G16KT 9SM SCT008 BKN010 BKN013 14/13 A2938 RMK AO1 SLP948
SPECI CYNL 151757Z AUTO 33008G17KT 9SM BKN009 BKN016 OVC019 13/13 A2938 RMK AO1 SLP947
SPECI CYNL 151751Z AUTO 33010G18KT 9SM SCT009 BKN013 OVC017 14/13 A2938 RMK AO1 SLP946
SPECI CYNL 151750Z AUTO 32010G18KT 9SM SCT009 OVC016 14/13 A2938 RMK AO1 SLP946
SPECI CYNL 151744Z AUTO 32010KT 9SM SCT009 BKN014 BKN017 14/13 A2938 RMK AO1 SLP946
SPECI CYNL 151742Z AUTO 32009KT 9SM SCT009 OVC015 14/13 A2938 RMK AO1 SLP946
SPECI CYNL 151741Z AUTO 32008KT 9SM SCT009 BKN014 OVC017 13/13 A2938 RMK AO1 SLP946
SPECI CYNL 151737Z AUTO 32007G16KT 9SM BKN009 BKN015 OVC021 13/13 A2938 RMK AO1 SLP945
SPECI CYNL 151736Z AUTO 33008G16KT 9SM FEW007 SCT009 BKN012 13/13 A2938 RMK AO1 SLP945
SPECI CYNL 151734Z AUTO 34006G16KT 3SM BKN008 BKN016 OVC021 13/13 A2938 RMK AO1 SLP945
SPECI CYNL 151728Z AUTO 34011KT 9SM FEW007 SCT009 BKN011 13/13 A2938 RMK AO1 SLP945
SPECI CYNL 151725Z AUTO 33008KT 6SM SCT007 BKN009 BKN015 13/13 A2937 RMK AO1 SLP944
SPECI CYNL 151720Z AUTO 33005KT 3SM SCT007 BKN011 OVC018 13/13 A2937 RMK AO1 SLP944
SPECI CYNL 151719Z AUTO 32007KT 2 1/2SM SCT007 BKN011 BKN015 13/13 A2937 RMK AO1 SLP944
SPECI CYNL 151713Z AUTO 33007KT 4SM SCT007 BKN011 BKN018 13/13 A2937 RMK AO1 SLP944
SPECI CYNL 151708Z AUTO 33008KT 2SM SCT007 BKN011 OVC018 13/13 A2937 RMK AO1 SLP943
SPECI CYNL 151704Z AUTO 33008G16KT 1 3/4SM SCT008 BKN011 BKN015 13/13 A2937 RMK AO1 SLP942
SPECI CYNL 151703Z AUTO 32007G16KT 2 1/2SM SCT008 BKN011 BKN015 13/13 A2937 RMK AO1 SLP942